Flight Track Log - Related Links

Times and Time Zones

All times are in EDT time to prevent confusion due to time zone crossing. See the DAL268 flight status page for this flight to view local times or setup timezone preferences in your user account.

Time Position Orientation Groundspeed Altitude Reporting Facility
EDT Latitude Longitude Course Direction KTS MPH feet Rate Location/Type
Wed 09:15:37 PM 40.6370 -73.7800 North  Level FlightAware ADS-B
Wed 09:21:00 PM 40.5868 -73.3971 108° East  Level FlightAware Approximate
Wed 09:22:00 PM 40.5657 -73.2229 97° East  Level FlightAware Approximate
Wed 09:23:00 PM 40.5500 -73.0426 90° East  Level FlightAware Approximate
Wed 09:24:00 PM 40.5783 -72.8701 72° East  Level FlightAware Approximate
Wed 09:26:00 PM 40.6000 -73.4731 90° East  Level FlightAware Approximate
Wed 09:27:00 PM 40.5833 -73.2950 90° East  Level FlightAware Approximate
Wed 09:28:00 PM 40.5565 -73.1208 97° East  Level FlightAware Approximate
Wed 09:29:00 PM 40.5667 -72.9463 90° East  Level FlightAware Approximate
Wed 09:30:00 PM 40.6083 -72.7751 66° East  Level FlightAware Approximate
Wed 09:31:00 PM 40.6485 -72.6045 66° East  Level FlightAware Approximate
Wed 09:32:00 PM 40.6952 -72.4335 69° East  Level FlightAware Approximate
Wed 09:44:01 PM 40.6350 -73.7870 300° West 115 132  Level FlightAware ADS-B
Wed 09:44:23 PM 40.6430 -73.8060 299° West 169 194 100 1,143 Climbing FlightAware ADS-B
Wed 09:44:43 PM 40.6510 -73.8230 302° West 157 181 800 2,000 Climbing FlightAware ADS-B
Wed 09:44:50 PM 40.6510 -73.8280 270° West 154 177 1,000 1,655 Climbing FlightAware ADS-B
Wed 09:45:12 PM 40.6460 -73.8480 252° West 161 185 1,600 1,400 Climbing FlightAware ADS-B
Wed 09:45:20 PM 40.6420 -73.8520 217° Southwest 166 191 1,700 1,333 Climbing FlightAware ADS-B
Wed 09:45:30 PM 40.6360 -73.8600 225° Southwest 169 194 2,000 1,455 Climbing FlightAware ADS-B
Wed 09:45:53 PM 40.6220 -73.8750 219° Southwest 185 213 2,500 1,333 Climbing FlightAware ADS-B
Wed 09:45:57 PM 40.6170 -73.8770 197° South 194 223 2,600 1,125 Climbing FlightAware ADS-B
Wed 09:46:09 PM 40.6050 -73.8780 184° South 215 247 2,800 750 Climbing FlightAware ADS-B
Wed 09:46:13 PM 40.6010 -73.8780 180° South 222 255 2,800 500 Level FlightAware ADS-B
Wed 09:46:21 PM 40.5930 -73.8740 159° South 235 270 2,900 750 Climbing FlightAware ADS-B
Wed 09:46:29 PM 40.5860 -73.8680 147° Southeast 246 283 3,000 750 Climbing FlightAware ADS-B
Wed 09:46:37 PM 40.5780 -73.8580 136° Southeast 262 302 3,100 500 Climbing FlightAware ADS-B
Wed 09:46:41 PM 40.5760 -73.8520 114° Southeast 269 310 3,100 600 Level FlightAware ADS-B
Wed 09:46:47 PM 40.5730 -73.8450 119° Southeast 275 316 3,200 1,125 Climbing FlightAware ADS-B
Wed 09:46:57 PM 40.5690 -73.8260 105° East 288 331 3,400 2,526 Climbing FlightAware ADS-B
Wed 09:47:25 PM 40.5730 -73.7770 84° East 287 330 4,800 2,875 Climbing FlightAware ADS-B
Wed 09:47:45 PM 40.5790 -73.7420 77° East 298 343 5,700 2,780 Climbing FlightAware ADS-B
Wed 09:48:06 PM 40.5810 -73.7040 86° East 305 351 6,700 2,919 Climbing FlightAware ADS-B
Wed 09:48:22 PM 40.5810 -73.6780 90° East 305 351 7,500 2,914 Climbing FlightAware ADS-B
Wed 09:48:41 PM 40.5800 -73.6400 92° East 308 354 8,400 2,769 Climbing FlightAware ADS-B
Wed 09:49:01 PM 40.5790 -73.6010 92° East 313 360 9,300 2,357 Climbing FlightAware ADS-B
Wed 09:49:37 PM 40.5760 -73.5330 93° East 333 383 10,600 1,714 Climbing FlightAware ADS-B
Wed 09:50:11 PM 40.5740 -73.4600 92° East 370 426 11,300 1,371 Climbing FlightAware ADS-B
Wed 09:50:47 PM 40.5710 -73.3740 93° East 400 460 12,200 1,917 Climbing FlightAware ADS-B
Wed 09:51:23 PM 40.5680 -73.2880 93° East 414 476 13,600 2,333 Climbing FlightAware ADS-B
Wed 09:51:59 PM 40.5750 -73.1960 84° East 424 488 15,000 2,250 Climbing FlightAware ADS-B
Wed 09:52:19 PM 40.5920 -73.1500 64° Northeast 426 490 15,700 2,438 Climbing FlightAware ADS-B
Wed 09:52:31 PM 40.6100 -73.1250 47° Northeast 426 490 16,300 2,250 Climbing FlightAware ADS-B
Wed 09:53:07 PM 40.6630 -73.0570 44° Northeast 438 504 17,500 2,083 Climbing FlightAware ADS-B
Wed 09:53:43 PM 40.7160 -72.9920 43° Northeast 447 514 18,800 1,971 Climbing FlightAware ADS-B
Wed 09:54:17 PM 40.7670 -72.9270 44° Northeast 457 526 19,800 1,800 Climbing FlightAware ADS-B
Wed 09:54:53 PM 40.8210 -72.8590 44° Northeast 464 534 20,900 1,853 Climbing FlightAware ADS-B
Wed 09:55:25 PM 40.8730 -72.7930 44° Northeast 472 543 21,900 1,853 Climbing FlightAware ADS-B
Wed 09:56:01 PM 40.9310 -72.7190 44° Northeast 480 552 23,000 1,750 Climbing FlightAware ADS-B
Wed 09:56:37 PM 40.9890 -72.6450 44° Northeast 488 562 24,000 1,583 Climbing FlightAware ADS-B
Wed 09:57:13 PM 41.0470 -72.5720 43° Northeast 495 570 24,900 1,457 Climbing FlightAware ADS-B
Wed 09:57:47 PM 41.1000 -72.5030 44° Northeast 502 578 25,700 1,500 Climbing FlightAware ADS-B
Wed 09:58:29 PM 41.1770 -72.4060 43° Northeast 512 589 26,800 1,558 Climbing FlightAware ADS-B
Wed 09:59:04 PM 41.2360 -72.3290 44° Northeast 516 594 27,700 1,500 Climbing FlightAware ADS-B
Wed 09:59:37 PM 41.2900 -72.2600 44° Northeast 519 597 28,500 1,385 Climbing FlightAware ADS-B
Wed 10:00:22 PM 41.3710 -72.1540 44° Northeast 523 602 29,500 1,291 Climbing FlightAware ADS-B
Wed 10:00:56 PM 41.4290 -72.0770 45° Northeast 528 608 30,200 1,263 Climbing FlightAware ADS-B
Wed 10:01:19 PM 41.4690 -72.0270 43° Northeast 529 609 30,700 1,548 Climbing FlightAware ADS-B
Wed 10:01:58 PM 41.5360 -71.9390 44° Northeast 523 602 31,800 1,600 Climbing FlightAware ADS-B
Wed 10:02:34 PM 41.5980 -71.8570 45° Northeast 521 600 32,700 1,437 Climbing FlightAware ADS-B
Wed 10:03:09 PM 41.6590 -71.7760 45° Northeast 519 597 33,500 1,217 Climbing FlightAware ADS-B
Wed 10:03:43 PM 41.7090 -71.7110 44° Northeast 517 595 34,100 1,114 Climbing FlightAware ADS-B
Wed 10:04:19 PM 41.7770 -71.6210 45° Northeast 518 596 34,800 761 Climbing FlightAware ADS-B
Wed 10:04:54 PM 41.8370 -71.5410 45° Northeast 519 597 35,000 171 Climbing FlightAware ADS-B
Wed 10:05:29 PM 41.8970 -71.4620 44° Northeast 517 595 35,000  Level FlightAware ADS-B
Wed 10:06:05 PM 41.9550 -71.3830 45° Northeast 518 596 35,000  Level FlightAware ADS-B
Wed 10:06:39 PM 42.0150 -71.3030 45° Northeast 518 596 35,000  Level FlightAware ADS-B
Wed 10:07:14 PM 42.0750 -71.2240 44° Northeast 519 597 35,000  Level FlightAware ADS-B
Wed 10:07:49 PM 42.1350 -71.1440 45° Northeast 521 600 35,000  Level FlightAware ADS-B
Wed 10:08:19 PM 42.1840 -71.0770 45° Northeast 521 600 35,000  Level FlightAware ADS-B
Wed 10:08:29 PM 42.1970 -71.0590 46° Northeast 521 600 35,000  Level FlightAware ADS-B
Wed 10:09:04 PM 42.2630 -70.9710 45° Northeast 522 601 35,000  Level FlightAware ADS-B
Wed 10:09:24 PM 42.2940 -70.9300 44° Northeast 522 601 35,000  Level FlightAware ADS-B
Wed 10:09:59 PM 42.3560 -70.8440 46° Northeast 523 602 35,000  Level FlightAware ADS-B
Wed 10:10:39 PM 42.4230 -70.7540 45° Northeast 524 603 35,000  Level FlightAware ADS-B
Wed 10:11:20 PM 42.4920 -70.6610 45° Northeast 524 603 35,000  Level FlightAware ADS-B
Wed 10:11:54 PM 42.5520 -70.5790 45° Northeast 524 603 35,000  Level FlightAware ADS-B
Wed 10:12:29 PM 42.6110 -70.4970 46° Northeast 524 603 35,000  Level FlightAware ADS-B
Wed 10:13:05 PM 42.6700 -70.4150 46° Northeast 526 605 35,000  Level FlightAware ADS-B
Wed 10:13:39 PM 42.7290 -70.3350 45° Northeast 527 606 35,000  Level FlightAware ADS-B
Wed 10:14:14 PM 42.7850 -70.2560 46° Northeast 528 608 35,000  Level FlightAware ADS-B
Wed 10:14:39 PM 42.8290 -70.1950 45° Northeast 529 609 35,000  Level FlightAware ADS-B
Wed 10:14:45 PM 42.8440 -70.1760 43° Northeast 530 610 35,000  Level FlightAware ADS-B
Wed 10:15:24 PM 42.9090 -70.0850 46° Northeast 531 611 35,000  Level FlightAware ADS-B
Wed 10:16:05 PM 42.9780 -69.9860 46° Northeast 533 613 35,000  Level FlightAware ADS-B
Wed 10:16:44 PM 43.0480 -69.8900 45° Northeast 535 616 35,000  Level FlightAware ADS-B
Wed 10:17:14 PM 43.0980 -69.8190 46° Northeast 537 618 35,000  Level FlightAware ADS-B
Wed 10:17:59 PM 43.1740 -69.7110 46° Northeast 534 615 35,000  Level FlightAware ADS-B
Wed 10:18:36 PM 43.2400 -69.6210 45° Northeast 534 615 35,000  Level FlightAware ADS-B
Wed 10:19:06 PM 43.2940 -69.5420 47° Northeast 539 620 35,000  Level FlightAware ADS-B
Wed 10:19:50 PM 43.3640 -69.4420 46° Northeast 538 619 35,000  Level FlightAware ADS-B
Wed 10:20:25 PM 43.4290 -69.3500 46° Northeast 538 619 35,000  Level FlightAware ADS-B
Wed 10:21:15 PM 43.5050 -69.2410 46° Northeast 538 619 35,000  Level FlightAware ADS-B
Wed 10:21:59 PM 43.5910 -69.1170 46° Northeast 486 559 35,000  Level FlightAware ADS-B
Wed 10:22:39 PM 43.6610 -69.0150 46° Northeast 539 620 35,000  Level FlightAware ADS-B
Wed 10:23:14 PM 43.7180 -68.9330 46° Northeast 540 621 35,000  Level FlightAware ADS-B
Wed 10:24:00 PM 43.7940 -68.8220 46° Northeast 541 623 35,000  Level FlightAware ADS-B
Wed 10:24:35 PM 43.8650 -68.7190 46° Northeast 540 621 35,000  Level FlightAware ADS-B
Wed 10:25:25 PM 43.9350 -68.6160 47° Northeast 540 621 35,000  Level FlightAware ADS-B
Wed 10:26:00 PM 44.0050 -68.5130 47° Northeast 539 620 35,000  Level FlightAware ADS-B
Wed 10:26:43 PM 44.0830 -68.3970 47° Northeast 539 620 35,000  Level FlightAware ADS-B
Wed 10:27:16 PM 44.1370 -68.3180 46° Northeast 540 621 35,000  Level FlightAware ADS-B
Wed 10:27:55 PM 44.2040 -68.2190 47° Northeast 542 624 35,000  Level FlightAware ADS-B
Wed 10:28:31 PM 44.2650 -68.1270 47° Northeast 542 624 35,000  Level FlightAware ADS-B
Wed 10:29:01 PM 44.3170 -68.0480 47° Northeast 542 624 35,000  Level FlightAware ADS-B
Wed 10:29:36 PM 44.3760 -67.9610 46° Northeast 542 624 35,000  Level FlightAware ADS-B
Wed 10:30:16 PM 44.4450 -67.8580 47° Northeast 543 625 35,000  Level FlightAware ADS-B
Wed 10:30:46 PM 44.4940 -67.7830 47° Northeast 543 625 35,000  Level FlightAware ADS-B
Wed 10:31:21 PM 44.5560 -67.6900 47° Northeast 542 624 35,000  Level FlightAware ADS-B
Wed 10:31:55 PM 44.6140 -67.6000 48° Northeast 543 625 35,000  Level FlightAware ADS-B
Wed 10:32:31 PM 44.6750 -67.5090 47° Northeast 545 627 35,000  Level FlightAware ADS-B
Wed 10:33:05 PM 44.7330 -67.4170 48° Northeast 545 627 35,000  Level FlightAware ADS-B
Wed 10:33:41 PM 44.7940 -67.3260 47° Northeast 545 627 35,000  Level FlightAware ADS-B
Wed 10:34:15 PM 44.8530 -67.2340 48° Northeast 545 627 35,000  Level FlightAware ADS-B
Wed 10:34:51 PM 44.9130 -67.1420 47° Northeast 545 627 35,000  Level FlightAware ADS-B
Wed 10:35:30 PM 44.9840 -67.0410 45° Northeast 541 623 35,000  Level FlightAware ADS-B
Wed 10:36:06 PM 45.0480 -66.9540 44° Northeast 542 624 35,000  Level FlightAware ADS-B
Wed 10:36:35 PM 45.1010 -66.8790 45° Northeast 543 625 35,000  Level FlightAware ADS-B
Wed 10:37:11 PM 45.1650 -66.7900 44° Northeast 550 633 35,000  Level FlightAware ADS-B
Wed 10:37:31 PM 45.2010 -66.7390 45° Northeast 550 633 35,000  Level FlightAware ADS-B
Wed 10:38:07 PM 45.2660 -66.6470 45° Northeast 551 634 35,000  Level FlightAware ADS-B
Wed 10:38:42 PM 45.3300 -66.5550 45° Northeast 550 633 35,000  Level FlightAware ADS-B
Wed 10:39:22 PM 45.4000 -66.4550 45° Northeast 550 633 35,000  Level FlightAware ADS-B
Wed 10:39:52 PM 45.4550 -66.3750 46° Northeast 550 633 35,000  Level FlightAware ADS-B
Wed 10:40:27 PM 45.5160 -66.2870 45° Northeast 550 633 35,000  Level FlightAware ADS-B
Wed 10:41:07 PM 45.5890 -66.1840 45° Northeast 550 633 35,000  Level FlightAware ADS-B
Wed 10:41:37 PM 45.6410 -66.1060 46° Northeast 549 632 35,000  Level FlightAware ADS-B
Wed 10:42:13 PM 45.7050 -66.0130 45° Northeast 548 631 35,000  Level FlightAware ADS-B
Wed 10:42:52 PM 45.7750 -65.9120 45° Northeast 547 629 35,000  Level FlightAware ADS-B
Wed 10:43:22 PM 45.8290 -65.8350 45° Northeast 541 623 35,000  Level FlightAware ADS-B
Wed 10:44:02 PM 45.8860 -65.7490 46° Northeast 541 623 35,000  Level FlightAware ADS-B
Wed 10:44:38 PM 45.9400 -65.6700 45° Northeast 541 623 35,000  Level FlightAware ADS-B
Wed 10:45:15 PM 45.9940 -65.5880 47° Northeast 541 623 35,000  Level FlightAware ADS-B
Wed 10:45:52 PM 46.0490 -65.5070 46° Northeast 541 623 35,000  Level FlightAware ADS-B
Wed 10:46:28 PM 46.1020 -65.4270 46° Northeast 541 623 35,000  Level FlightAware ADS-B
Wed 10:47:04 PM 46.1550 -65.3480 46° Northeast 541 623 35,000  Level FlightAware ADS-B
Wed 10:47:40 PM 46.2090 -65.2680 46° Northeast 541 623 35,000  Level FlightAware ADS-B
Wed 10:48:17 PM 46.2630 -65.1860 46° Northeast 541 623 35,000  Level FlightAware ADS-B
Wed 10:48:53 PM 46.3160 -65.1060 46° Northeast 541 623 35,000  Level FlightAware ADS-B
Wed 10:49:27 PM 46.3670 -65.0310 45° Northeast 541 623 35,000  Level FlightAware ADS-B
Wed 10:50:01 PM 46.4170 -64.9560 46° Northeast 541 623 35,000  Level FlightAware ADS-B
Wed 10:50:37 PM 46.4700 -64.8760 46° Northeast 541 623 35,000  Level FlightAware ADS-B
Wed 10:51:13 PM 46.5230 -64.7950 46° Northeast 541 623 35,000  Level FlightAware ADS-B
Wed 10:51:49 PM 46.5770 -64.7150 46° Northeast 541 623 35,000  Level FlightAware ADS-B
Wed 10:52:25 PM 46.6300 -64.6350 46° Northeast 541 623 35,000  Level FlightAware ADS-B
Wed 10:53:01 PM 46.6830 -64.5550 46° Northeast 541 623 35,000  Level FlightAware ADS-B
Wed 10:53:43 PM 46.8833 -64.1833 46° Northeast 550 633 35,000  Level Gander Center
Wed 10:54:43 PM 47.0167 -64.0000 43° Northeast 550 633 35,000  Level Gander Center
Wed 10:55:43 PM 47.1167 -63.8667 42° Northeast 560 644 35,000  Level Gander Center
Wed 10:56:43 PM 47.2167 -63.7000 49° Northeast 550 633 35,000  Level Gander Center
Wed 10:57:43 PM 47.3167 -63.5167 51° Northeast 550 633 35,000  Level Gander Center
Wed 10:58:43 PM 47.4333 -63.3500 44° Northeast 550 633 35,000  Level Gander Center
Wed 10:59:43 PM 47.5333 -63.1833 48° Northeast 560 644 35,000  Level Gander Center
Wed 11:00:43 PM 47.6333 -63.0167 48° Northeast 550 633 35,000  Level Gander Center
Wed 11:01:43 PM 47.7333 -62.8500 48° Northeast 550 633 35,000  Level Gander Center
Wed 11:02:43 PM 47.8333 -62.6833 48° Northeast 550 633 35,000  Level Gander Center
Wed 11:03:43 PM 47.9333 -62.5000 51° Northeast 550 633 35,000  Level Gander Center
Wed 11:04:43 PM 48.0500 -62.3333 44° Northeast 550 633 35,000  Level Gander Center
Wed 11:05:43 PM 48.1500 -62.1667 48° Northeast 550 633 35,000  Level Gander Center
Wed 11:06:43 PM 48.2500 -61.9833 51° Northeast 550 633 35,000  Level Gander Center
Wed 11:07:43 PM 48.3500 -61.8167 48° Northeast 550 633 35,000  Level Gander Center
Wed 11:08:43 PM 48.4500 -61.6333 51° Northeast 550 633 35,000  Level Gander Center
Wed 11:09:43 PM 48.5500 -61.4833 45° Northeast 540 621 35,000  Level Gander Center
Wed 11:10:43 PM 48.6500 -61.3000 50° Northeast 550 633 35,000  Level Gander Center
Wed 11:11:43 PM 48.7500 -61.1333 48° Northeast 550 633 35,000  Level Gander Center
Wed 11:12:43 PM 48.8500 -60.9500 50° Northeast 550 633 35,000  Level Gander Center
Wed 11:18:47 PM 49.4690 -59.8800 50° Northeast 564 649 35,000  Level FlightAware ADS-B
Wed 11:19:37 PM 49.5590 -59.7140 50° Northeast 564 649 35,000  Level FlightAware ADS-B
Wed 11:20:12 PM 49.6170 -59.6060 50° Northeast 566 651 35,000  Level FlightAware ADS-B
Wed 11:20:42 PM 49.6690 -59.5120 49° Northeast 568 654 35,000  Level FlightAware ADS-B
Wed 11:21:27 PM 49.7440 -59.3710 51° Northeast 571 657 35,000  Level FlightAware ADS-B
Wed 11:22:22 PM 49.8230 -59.2220 51° Northeast 572 658 35,000  Level FlightAware ADS-B
Wed 11:22:59 PM 49.8870 -59.1050 50° Northeast 573 659 35,000  Level FlightAware ADS-B
Wed 11:23:36 PM 49.9400 -59.0050 51° Northeast 573 659 35,000  Level FlightAware ADS-B
Wed 11:24:13 PM 49.9940 -58.9060 50° Northeast 573 659 35,000  Level FlightAware ADS-B
Wed 11:24:47 PM 50.0750 -58.7330 54° Northeast 35,000  Level FlightAware ADS-B
Wed 11:25:22 PM 50.1230 -58.6230 56° Northeast 575 662 35,000  Level FlightAware ADS-B
Wed 11:26:02 PM 50.1820 -58.4850 56° Northeast 575 662 35,000  Level FlightAware ADS-B
Wed 11:26:42 PM 50.2450 -58.3370 56° Northeast 577 664 35,000  Level FlightAware ADS-B
Wed 11:27:17 PM 50.2990 -58.2130 56° Northeast 578 665 35,000  Level FlightAware ADS-B
Wed 11:27:52 PM 50.3510 -58.0950 55° Northeast 581 669 35,000  Level FlightAware ADS-B
Wed 11:28:27 PM 50.4040 -57.9730 56° Northeast 582 670 35,000  Level FlightAware ADS-B
Wed 11:28:57 PM 50.4500 -57.8690 55° Northeast 583 671 35,000  Level FlightAware ADS-B
Wed 11:29:37 PM 50.5050 -57.7430 56° Northeast 582 670 35,000  Level FlightAware ADS-B
Wed 11:30:17 PM 50.5610 -57.6080 57° Northeast 583 671 35,000  Level FlightAware ADS-B
Wed 11:31:07 PM 50.6420 -57.4190 56° Northeast 584 672 35,000  Level FlightAware ADS-B
Wed 11:31:52 PM 50.7100 -57.2560 57° Northeast 584 672 35,000  Level FlightAware ADS-B
Wed 11:32:29 PM 50.7580 -57.1440 56° Northeast 584 672 35,000  Level FlightAware ADS-B
Wed 11:33:05 PM 50.8040 -57.0360 56° Northeast 584 672 35,000  Level FlightAware ADS-B
Wed 11:33:41 PM 50.8500 -56.9270 56° Northeast 584 672 35,000  Level FlightAware ADS-B
Wed 11:34:18 PM 50.8980 -56.8160 56° Northeast 584 672 35,000  Level FlightAware ADS-B
Wed 11:34:55 PM 50.9450 -56.7040 56° Northeast 584 672 35,000  Level FlightAware ADS-B
Wed 11:35:31 PM 50.9910 -56.5950 56° Northeast 584 672 35,000  Level FlightAware ADS-B
Wed 11:36:07 PM 51.0370 -56.4860 56° Northeast 584 672 35,000  Level FlightAware ADS-B
Wed 11:36:43 PM 51.0840 -56.3770 56° Northeast 584 672 35,000  Level FlightAware ADS-B
Wed 11:37:19 PM 51.1300 -56.2680 56° Northeast 584 672 35,000  Level FlightAware ADS-B
Wed 11:37:55 PM 51.1760 -56.1590 56° Northeast 584 672 35,000  Level FlightAware ADS-B
Wed 11:38:31 PM 51.2220 -56.0490 56° Northeast 584 672 35,000  Level FlightAware ADS-B
Wed 11:39:07 PM 51.2690 -55.9400 55° Northeast 584 672 35,000  Level FlightAware ADS-B
Wed 11:39:43 PM 51.3150 -55.8300 56° Northeast 584 672 35,000  Level FlightAware ADS-B
Wed 11:40:19 PM 51.3610 -55.7200 56° Northeast 584 672 35,000  Level FlightAware ADS-B
Wed 11:40:55 PM 51.4070 -55.6110 56° Northeast 584 672 35,000  Level FlightAware ADS-B
Wed 11:41:31 PM 51.4530 -55.5010 56° Northeast 584 672 35,000  Level FlightAware ADS-B
Wed 11:42:06 PM 51.6167 -54.9167 56° Northeast 590 679 35,000  Level Gander Center
Wed 11:43:06 PM 51.7000 -54.7167 56° Northeast 590 679 35,000  Level Gander Center
Wed 11:44:06 PM 51.8000 -54.4667 57° Northeast 590 679 35,000  Level Gander Center
Wed 11:45:06 PM 51.8667 -54.2667 62° Northeast 590 679 35,000  Level Gander Center
Wed 11:46:06 PM 51.9500 -54.0000 63° Northeast 590 679 35,000  Level Gander Center
Wed 11:47:06 PM 52.0333 -53.8000 56° Northeast 590 679 35,000  Level Gander Center
Wed 11:48:06 PM 52.1333 -53.5667 55° Northeast 590 679 35,000  Level Gander Center
Wed 11:49:43 PM 52.2333 -53.1667 68° East 590 679 35,000  Level Gander Center
Wed 11:50:43 PM 52.2833 -52.9333 71° East 570 656 35,000  Level Gander Center
Wed 11:51:43 PM 52.3500 -52.6667 68° East 580 667 35,000  Level Gander Center
Wed 11:52:43 PM 52.4167 -52.4333 65° Northeast 580 667 35,000  Level Gander Center
Wed 11:53:43 PM 52.4667 -52.2167 69° East 570 656 35,000  Level Gander Center
Wed 11:55:06 PM 52.5500 -51.8333 70° East 610 702 35,000  Level Gander Center
Wed 11:56:06 PM 52.6000 -51.6000 70° East 580 667 35,000  Level Gander Center
Wed 11:57:06 PM 52.6500 -51.3333 73° East 580 667 35,000  Level Gander Center
Wed 11:58:06 PM 52.7333 -51.1000 59° Northeast 590 679 35,000  Level Gander Center
Thu 12:00:06 AM 52.8333 -50.6000 72° East 570 656 35,000  Level Gander Center
Thu 12:01:06 AM 52.8500 -50.4000 82° East 570 656 35,000  Level Gander Center
Thu 12:02:06 AM 52.9333 -50.1000 65° Northeast 570 656 35,000  Level Gander Center
Thu 12:03:06 AM 52.9667 -49.9000 74° East 570 656 35,000 14 Level Gander Center
Thu 12:05:00 AM 53.0867 -49.4892 64° Northeast  Level FlightAware Approximate
Thu 12:12:00 AM 53.4882 -47.9325 68° East  Level FlightAware Approximate
Thu 12:13:00 AM 53.5404 -47.7058 69° East  Level FlightAware Approximate
Thu 12:14:00 AM 53.5922 -47.4785 69° East  Level FlightAware Approximate
Thu 12:15:00 AM 53.6436 -47.2506 69° East  Level FlightAware Approximate
Thu 12:16:00 AM 53.6945 -47.0222 69° East  Level FlightAware Approximate
Thu 12:17:00 AM 53.7449 -46.7933 69° East  Level FlightAware Approximate
Thu 12:18:00 AM 53.7950 -46.5638 70° East  Level FlightAware Approximate
Thu 12:19:00 AM 53.8446 -46.3337 70° East  Level FlightAware Approximate
Thu 12:20:00 AM 53.8937 -46.1031 70° East  Level FlightAware Approximate
Thu 12:21:00 AM 53.9424 -45.8720 70° East  Level FlightAware Approximate
Thu 12:22:00 AM 53.9907 -45.6403 70° East  Level FlightAware Approximate
Thu 12:23:00 AM 54.0385 -45.4081 71° East  Level FlightAware Approximate
Thu 12:24:00 AM 54.0859 -45.1754 71° East  Level FlightAware Approximate
Thu 12:25:00 AM 54.1328 -44.9421 71° East  Level FlightAware Approximate
Thu 12:26:00 AM 54.1793 -44.7083 71° East  Level FlightAware Approximate
Thu 12:27:00 AM 54.2253 -44.4740 71° East  Level FlightAware Approximate
Thu 12:28:00 AM 54.2708 -44.2391 72° East  Level FlightAware Approximate
Thu 12:29:00 AM 54.3159 -44.0038 72° East  Level FlightAware Approximate
Thu 12:30:00 AM 54.3606 -43.7679 72° East  Level FlightAware Approximate
Thu 12:31:00 AM 54.4048 -43.5315 72° East  Level FlightAware Approximate
Thu 12:32:00 AM 54.4485 -43.2946 72° East  Level FlightAware Approximate
Thu 12:33:00 AM 54.4917 -43.0573 72° East  Level FlightAware Approximate
Thu 12:34:00 AM 54.5345 -42.8194 73° East  Level FlightAware Approximate
Thu 12:35:00 AM 54.5769 -42.5810 73° East  Level FlightAware Approximate
Thu 12:36:00 AM 54.6187 -42.3421 73° East  Level FlightAware Approximate
Thu 12:37:00 AM 54.6601 -42.1027 73° East  Level FlightAware Approximate
Thu 12:38:00 AM 54.7010 -41.8629 73° East  Level FlightAware Approximate
Thu 12:39:00 AM 54.7414 -41.6225 74° East  Level FlightAware Approximate
Thu 12:40:00 AM 54.7814 -41.3817 74° East  Level FlightAware Approximate
Thu 12:41:00 AM 54.8209 -41.1404 74° East  Level FlightAware Approximate
Thu 12:42:00 AM 54.8599 -40.8987 74° East  Level FlightAware Approximate
Thu 12:43:00 AM 54.8984 -40.6564 74° East  Level FlightAware Approximate
Thu 12:44:00 AM 54.9364 -40.4142 75° East  Level FlightAware Approximate
Thu 12:45:00 AM 54.9738 -40.1719 75° East  Level FlightAware Approximate
Thu 12:46:00 AM 55.0030 -39.9269 86° East  Level FlightAware Approximate
Thu 12:47:00 AM 55.0129 -39.6762 86° East  Level FlightAware Approximate
Thu 12:48:00 AM 55.0223 -39.4254 86° East  Level FlightAware Approximate
Thu 12:49:00 AM 55.0311 -39.1746 86° East  Level FlightAware Approximate
Thu 12:50:00 AM 55.0395 -38.9236 87° East  Level FlightAware Approximate
Thu 12:51:00 AM 55.0473 -38.6725 87° East  Level FlightAware Approximate
Thu 12:52:00 AM 55.0546 -38.4213 87° East  Level FlightAware Approximate
Thu 12:53:00 AM 55.0614 -38.1700 87° East  Level FlightAware Approximate
Thu 12:54:00 AM 55.0677 -37.9186 87° East  Level FlightAware Approximate
Thu 12:55:00 AM 55.0734 -37.6672 88° East  Level FlightAware Approximate
Thu 12:56:00 AM 55.0787 -37.4157 88° East  Level FlightAware Approximate
Thu 12:57:00 AM 55.0834 -37.1641 88° East  Level FlightAware Approximate
Thu 12:58:00 AM 55.0876 -36.9125 88° East  Level FlightAware Approximate
Thu 12:59:00 AM 55.0913 -36.6608 88° East  Level FlightAware Approximate
Thu 01:00:00 AM 55.0944 -36.4091 89° East  Level FlightAware Approximate
Thu 01:01:00 AM 55.0971 -36.1573 89° East  Level FlightAware Approximate
Thu 01:02:00 AM 55.0992 -35.9055 89° East  Level FlightAware Approximate
Thu 01:03:00 AM 55.1008 -35.6537 89° East  Level FlightAware Approximate
Thu 01:04:00 AM 55.1019 -35.4019 89° East  Level FlightAware Approximate
Thu 01:05:00 AM 55.1025 -35.1501 90° East  Level FlightAware Approximate
Thu 01:06:00 AM 55.1025 -34.8982 90° East  Level FlightAware Approximate
Thu 01:07:00 AM 55.1021 -34.6464 90° East  Level FlightAware Approximate
Thu 01:08:00 AM 55.1011 -34.3945 90° East  Level FlightAware Approximate
Thu 01:09:00 AM 55.0996 -34.1427 90° East  Level FlightAware Approximate
Thu 01:10:00 AM 55.0975 -33.8909 91° East  Level FlightAware Approximate
Thu 01:11:00 AM 55.0950 -33.6392 91° East  Level FlightAware Approximate
Thu 01:12:00 AM 55.0919 -33.3874 91° East  Level FlightAware Approximate
Thu 01:13:00 AM 55.0883 -33.1357 91° East  Level FlightAware Approximate
Thu 01:14:00 AM 55.0842 -32.8841 92° East  Level FlightAware Approximate
Thu 01:15:00 AM 55.0796 -32.6325 92° East  Level FlightAware Approximate
Thu 01:16:00 AM 55.0745 -32.3810 92° East  Level FlightAware Approximate
Thu 01:17:00 AM 55.0688 -32.1296 92° East  Level FlightAware Approximate
Thu 01:18:00 AM 55.0626 -31.8782 92° East  Level FlightAware Approximate
Thu 01:19:00 AM 55.0559 -31.6269 93° East  Level FlightAware Approximate
Thu 01:20:00 AM 55.0487 -31.3757 93° East  Level FlightAware Approximate
Thu 01:21:00 AM 55.0410 -31.1245 93° East  Level FlightAware Approximate
Thu 01:22:00 AM 55.0327 -30.8735 93° East  Level FlightAware Approximate
Thu 01:23:00 AM 55.0240 -30.6218 93° East  Level FlightAware Approximate
Thu 01:24:00 AM 55.0146 -30.3701 94° East  Level FlightAware Approximate
Thu 01:25:00 AM 55.0049 -30.1199 94° East  Level FlightAware Approximate
Thu 01:26:00 AM 54.9924 -29.8701 96° East  Level FlightAware Approximate
Thu 01:27:00 AM 54.9773 -29.6208 96° East  Level FlightAware Approximate
Thu 01:28:00 AM 54.9618 -29.3717 96° East  Level FlightAware Approximate
Thu 01:29:00 AM 54.9457 -29.1227 96° East  Level FlightAware Approximate
Thu 01:30:00 AM 54.9291 -28.8740 97° East  Level FlightAware Approximate
Thu 01:31:00 AM 54.9120 -28.6255 97° East  Level FlightAware Approximate
Thu 01:32:00 AM 54.8944 -28.3772 97° East  Level FlightAware Approximate
Thu 01:33:00 AM 54.8764 -28.1292 97° East  Level FlightAware Approximate
Thu 01:34:00 AM 54.8577 -27.8813 97° East  Level FlightAware Approximate
Thu 01:35:00 AM 54.8386 -27.6337 98° East  Level FlightAware Approximate
Thu 01:36:00 AM 54.8190 -27.3864 98° East  Level FlightAware Approximate
Thu 01:37:00 AM 54.7989 -27.1392 98° East  Level FlightAware Approximate
Thu 01:38:00 AM 54.7783 -26.8923 98° East  Level FlightAware Approximate
Thu 01:39:00 AM 54.7572 -26.6457 98° East  Level FlightAware Approximate
Thu 01:40:00 AM 54.7356 -26.3993 99° East  Level FlightAware Approximate
Thu 01:41:00 AM 54.7135 -26.1532 99° East  Level FlightAware Approximate
Thu 01:42:00 AM 54.6909 -25.9074 99° East  Level FlightAware Approximate
Thu 01:43:00 AM 54.6678 -25.6619 99° East  Level FlightAware Approximate
Thu 01:44:00 AM 54.6447 -25.4164 99° East  Level FlightAware Approximate
Thu 01:45:00 AM 54.6212 -25.1713 99° East  Level FlightAware Approximate
Thu 01:46:00 AM 54.5971 -24.9264 100° East  Level FlightAware Approximate
Thu 01:47:00 AM 54.5726 -24.6818 100° East  Level FlightAware Approximate
Thu 01:48:00 AM 54.5475 -24.4376 100° East  Level FlightAware Approximate
Thu 01:49:00 AM 54.5220 -24.1936 100° East  Level FlightAware Approximate
Thu 01:50:00 AM 54.4960 -23.9499 100° East  Level FlightAware Approximate
Thu 01:51:00 AM 54.4695 -23.7066 101° East  Level FlightAware Approximate
Thu 01:52:00 AM 54.4425 -23.4636 101° East  Level FlightAware Approximate
Thu 01:53:00 AM 54.4150 -23.2208 101° East  Level FlightAware Approximate
Thu 01:54:00 AM 54.3870 -22.9785 101° East  Level FlightAware Approximate
Thu 01:55:00 AM 54.3586 -22.7364 101° East  Level FlightAware Approximate
Thu 01:56:00 AM 54.3296 -22.4947 102° East  Level FlightAware Approximate
Thu 01:57:00 AM 54.3002 -22.2534 102° East  Level FlightAware Approximate
Thu 01:58:00 AM 54.2703 -22.0123 102° East  Level FlightAware Approximate
Thu 01:59:00 AM 54.2398 -21.7704 102° East  Level FlightAware Approximate
Thu 02:00:00 AM 54.2088 -21.5293 102° East  Level FlightAware Approximate
Thu 02:01:00 AM 54.1773 -21.2885 102° East  Level FlightAware Approximate
Thu 02:02:00 AM 54.1454 -21.0481 103° East  Level FlightAware Approximate
Thu 02:03:00 AM 54.1130 -20.8081 103° East  Level FlightAware Approximate
Thu 02:04:00 AM 54.0801 -20.5685 103° East  Level FlightAware Approximate
Thu 02:05:00 AM 54.0468 -20.3292 103° East  Level FlightAware Approximate
Thu 02:06:00 AM 54.0129 -20.0903 103° East  Level FlightAware Approximate
Thu 02:07:00 AM 53.9895 -19.8485 97° East  Level FlightAware Approximate
Thu 02:08:00 AM 53.9723 -19.6048 97° East  Level FlightAware Approximate
Thu 02:09:00 AM 53.9546 -19.3613 97° East  Level FlightAware Approximate
Thu 02:10:00 AM 53.9364 -19.1181 97° East  Level FlightAware Approximate
Thu 02:11:00 AM 53.9176 -18.8750 97° East  Level FlightAware Approximate
Thu 02:12:00 AM 53.8984 -18.6322 98° East  Level FlightAware Approximate
Thu 02:13:00 AM 53.8788 -18.3896 98° East  Level FlightAware Approximate
Thu 02:14:00 AM 53.8586 -18.1472 98° East  Level FlightAware Approximate
Thu 02:15:00 AM 53.8379 -17.9051 98° East  Level FlightAware Approximate
Thu 02:16:00 AM 53.8168 -17.6632 98° East  Level FlightAware Approximate
Thu 02:17:00 AM 53.7951 -17.4216 99° East  Level FlightAware Approximate
Thu 02:18:00 AM 53.7730 -17.1802 99° East  Level FlightAware Approximate
Thu 02:19:00 AM 53.7504 -16.9390 99° East  Level FlightAware Approximate
Thu 02:20:00 AM 53.7273 -16.6982 99° East  Level FlightAware Approximate
Thu 02:21:00 AM 53.7037 -16.4575 99° East  Level FlightAware Approximate
Thu 02:22:00 AM 53.6797 -16.2172 99° East  Level FlightAware Approximate
Thu 02:23:00 AM 53.6551 -15.9771 100° East  Level FlightAware Approximate
Thu 02:24:00 AM 53.6301 -15.7374 100° East  Level FlightAware Approximate
Thu 02:25:00 AM 53.6046 -15.4979 100° East  Level FlightAware Approximate
Thu 02:26:00 AM 53.5787 -15.2587 100° East  Level FlightAware Approximate
Thu 02:27:00 AM 53.5522 -15.0198 100° East  Level FlightAware Approximate
Thu 02:28:00 AM 53.5251 -14.7812 101° East  Level FlightAware Approximate
Thu 02:29:00 AM 53.4975 -14.5430 101° East  Level FlightAware Approximate
Thu 02:29:33 AM 52.8340 -12.5470 101° East 529 609 37,000  Level FlightAware ADS-B
Thu 02:30:00 AM 53.4695 -14.3051 101° East  Level FlightAware Approximate
Thu 02:30:10 AM 52.8220 -12.3990 98° East 528 608 37,000  Level FlightAware ADS-B
Thu 02:30:50 AM 52.8100 -12.2440 97° East 526 605 37,000  Level FlightAware ADS-B
Thu 02:31:25 AM 52.7970 -12.0930 98° East 526 605 37,000  Level FlightAware ADS-B
Thu 02:32:00 AM 52.7860 -11.9530 97° East 526 605 37,000  Level FlightAware ADS-B
Thu 02:32:35 AM 52.7750 -11.8300 98° East 528 608 37,000  Level FlightAware ADS-B
Thu 02:33:10 AM 52.7640 -11.6900 97° East 528 608 37,000  Level FlightAware ADS-B
Thu 02:33:45 AM 52.7510 -11.5420 98° East 529 609 37,000  Level FlightAware ADS-B
Thu 02:34:20 AM 52.7390 -11.4020 98° East 529 609 37,000  Level FlightAware ADS-B
Thu 02:34:52 AM 52.7260 -11.2630 99° East 530 610 37,000  Level FlightAware ADS-B
Thu 02:35:28 AM 52.7140 -11.1320 99° East 528 608 37,000  Level FlightAware ADS-B
Thu 02:36:03 AM 52.7020 -10.9930 98° East 526 605 37,000  Level FlightAware ADS-B
Thu 02:36:57 AM 52.6820 -10.7810 99° East 522 601 37,000  Level FlightAware ADS-B
Thu 02:37:45 AM 52.6640 -10.5930 99° East 521 600 37,000  Level FlightAware ADS-B
Thu 02:38:20 AM 52.6510 -10.4560 99° East 519 597 37,000  Level FlightAware ADS-B
Thu 02:39:00 AM 52.6350 -10.2970 99° East 518 596 37,000  Level FlightAware ADS-B
Thu 02:39:35 AM 52.6210 -10.1570 99° East 519 597 37,000  Level FlightAware ADS-B
Thu 02:40:10 AM 52.6080 -10.0150 99° East 527 606 37,000  Level FlightAware ADS-B
Thu 02:40:45 AM 52.5940 -9.8880 100° East 528 608 37,000  Level FlightAware ADS-B
Thu 02:41:15 AM 52.5820 -9.7660 99° East 528 608 37,000  Level FlightAware ADS-B
Thu 02:41:58 AM 52.5640 -9.5900 99° East 522 601 37,000  Level FlightAware ADS-B
Thu 02:42:38 AM 52.5490 -9.4530 100° East 519 597 37,000  Level FlightAware ADS-B
Thu 02:43:13 AM 52.5340 -9.3030 99° East 516 594 37,000  Level FlightAware ADS-B
Thu 02:43:48 AM 52.5190 -9.1690 100° East 513 590 37,000  Level FlightAware ADS-B
Thu 02:44:22 AM 52.5050 -9.0430 100° East 510 587 37,000  Level FlightAware ADS-B
Thu 02:44:58 AM 52.4920 -8.9180 100° East 513 590 37,000  Level FlightAware ADS-B
Thu 02:45:32 AM 52.4750 -8.7720 101° East 515 593 37,000  Level FlightAware ADS-B
Thu 02:46:08 AM 52.4589 -8.6240 101° East 492 566 37,000  Level FlightAware UK
Thu 02:46:08 AM 52.4610 -8.6450 101° East 515 593 37,000  Level FlightAware ADS-B
Thu 02:46:38 AM 52.4460 -8.5090 101° East 490 564 37,000  Level FlightAware UK
Thu 02:46:43 AM 52.4450 -8.5070 101° East 515 593 37,000  Level FlightAware ADS-B
Thu 02:47:17 AM 52.4290 -8.3660 100° East 516 594 37,000  Level FlightAware ADS-B
Thu 02:47:53 AM 52.4140 -8.2360 101° East 516 594 37,000  Level FlightAware ADS-B
Thu 02:48:28 AM 52.3980 -8.0980 101° East 515 593 37,000  Level FlightAware ADS-B
Thu 02:49:02 AM 52.3820 -7.9640 101° East 514 592 37,000  Level FlightAware ADS-B
Thu 02:49:38 AM 52.3652 -7.8195 101° East 494 568 37,000  Level FlightAware UK
Thu 02:49:42 AM 52.3640 -7.8160 101° East 513 590 37,000  Level FlightAware ADS-B
Thu 02:50:18 AM 52.3490 -7.6870 101° East 513 590 37,000  Level FlightAware ADS-B
Thu 02:50:53 AM 52.3330 -7.5580 101° East 513 590 37,000  Level FlightAware ADS-B
Thu 02:51:32 AM 52.3130 -7.3990 102° East 513 590 37,000  Level FlightAware ADS-B
Thu 02:52:03 AM 52.2990 -7.2810 101° East 514 592 37,000  Level FlightAware ADS-B
Thu 02:52:37 AM 52.2820 -7.1520 101° East 514 592 37,000  Level FlightAware ADS-B
Thu 02:52:39 AM 52.2810 -7.1365 101° East 496 571 37,000  Level FlightAware UK
Thu 02:53:09 AM 52.2665 -7.0227 101° East 496 571 37,000  Level FlightAware UK
Thu 02:53:13 AM 52.2650 -7.0160 101° East 514 592 37,000  Level FlightAware ADS-B
Thu 02:53:53 AM 52.2460 -6.8680 102° East 513 590 37,000  Level FlightAware ADS-B
Thu 02:54:22 AM 52.2310 -6.7510 102° East 512 589 37,000  Level FlightAware ADS-B
Thu 02:54:58 AM 52.2140 -6.6230 102° East 512 589 37,000  Level FlightAware ADS-B
Thu 02:55:33 AM 52.1960 -6.4870 102° East 513 590 37,000  Level FlightAware ADS-B
Thu 02:56:09 AM 52.1776 -6.3438 102° East 490 564 37,000  Level FlightAware UK
Thu 02:56:13 AM 52.1760 -6.3320 102° East 514 592 37,000  Level FlightAware ADS-B
Thu 02:56:45 AM 52.1600 -6.2150 103° East 515 593 37,000  Level FlightAware ADS-B
Thu 02:57:21 AM 52.1420 -6.0800 102° East 514 592 37,000  Level FlightAware ADS-B
Thu 02:57:56 AM 52.1230 -5.9440 103° East 514 592 37,000  Level FlightAware ADS-B
Thu 02:58:32 AM 52.1040 -5.8080 103° East 512 589 37,000  Level FlightAware ADS-B
Thu 02:59:04 AM 52.0870 -5.6850 103° East 509 586 37,000  Level FlightAware ADS-B
Thu 02:59:39 AM 52.0685 -5.5538 103° East 490 564 37,000  Level FlightAware UK
Thu 02:59:42 AM 52.0670 -5.5440 103° East 506 582 37,000  Level FlightAware ADS-B
Thu 03:00:14 AM 52.0500 -5.4260 103° East 506 582 37,000  Level FlightAware ADS-B
Thu 03:00:49 AM 52.0320 -5.2970 103° East 506 582 37,000  Level FlightAware ADS-B
Thu 03:01:25 AM 52.0130 -5.1680 103° East 505 581 37,000  Level FlightAware ADS-B
Thu 03:02:02 AM 51.9940 -5.0310 103° East 506 582 37,000  Level FlightAware ADS-B
Thu 03:02:38 AM 51.9800 -4.8970 100° East 507 583 37,000  Level FlightAware ADS-B
Thu 03:03:10 AM 51.9710 -4.7760 97° East 507 583 37,000  Level FlightAware ADS-B
Thu 03:03:45 AM 51.9612 -4.6391 97° East 492 566 37,000  Level FlightAware UK
Thu 03:03:46 AM 51.9610 -4.6370 97° East 503 579 37,000  Level FlightAware ADS-B
Thu 03:04:22 AM 51.9500 -4.5030 98° East 501 577 37,000  Level FlightAware ADS-B
Thu 03:04:54 AM 51.9400 -4.3840 98° East 499 574 37,000  Level FlightAware ADS-B
Thu 03:05:31 AM 51.9280 -4.2510 98° East 498 573 37,000  Level FlightAware ADS-B
Thu 03:06:07 AM 51.9160 -4.1190 98° East 498 573 37,000  Level FlightAware ADS-B
Thu 03:06:43 AM 51.9030 -3.9860 99° East 499 574 37,000  Level FlightAware ADS-B
Thu 03:07:15 AM 51.8918 -3.8621 99° East 486 559 37,000  Level FlightAware UK
Thu 03:07:15 AM 51.8920 -3.8680 99° East 499 574 37,000  Level FlightAware ADS-B
Thu 03:07:45 AM 51.8816 -3.7516 99° East 488 562 37,000  Level FlightAware UK
Thu 03:07:51 AM 51.8800 -3.7360 99° East 498 573 37,000  Level FlightAware ADS-B
Thu 03:08:21 AM 51.8689 -3.6192 99° East 486 559 37,000  Level FlightAware UK
Thu 03:08:27 AM 51.8670 -3.6030 99° East 497 572 37,000  Level FlightAware ADS-B
Thu 03:08:59 AM 51.8560 -3.4860 99° East 497 572 37,000  Level FlightAware ADS-B
Thu 03:09:34 AM 51.8430 -3.3540 99° East 497 572 37,000  Level FlightAware ADS-B
Thu 03:10:11 AM 51.8300 -3.2220 99° East 499 574 37,000  Level FlightAware ADS-B
Thu 03:10:21 AM 51.8265 -3.1846 99° East 499 574 37,000  Level FlightAware ADS-B
Thu 03:10:54 AM 51.8142 -3.0596 99° East 500 575 37,000  Level FlightAware ADS-B
Thu 03:11:30 AM 51.8010 -2.9269 99° East 501 577 37,000  Level FlightAware ADS-B
Thu 03:12:03 AM 51.7888 -2.8088 99° East 502 578 37,000  Level FlightAware ADS-B
Thu 03:12:33 AM 51.7773 -2.6944 99° East 503 579 37,000  Level FlightAware ADS-B
Thu 03:13:03 AM 51.7657 -2.5836 100° East 504 580 37,000  Level FlightAware ADS-B
Thu 03:13:33 AM 51.7540 -2.4726 100° East 504 580 37,000  Level FlightAware ADS-B
Thu 03:14:06 AM 51.7414 -2.3537 100° East 506 582 37,000  Level FlightAware ADS-B
Thu 03:14:37 AM 51.7288 -2.2349 100° East 507 583 37,000  Level FlightAware ADS-B
Thu 03:15:10 AM 51.7157 -2.1123 100° East 508 585 37,000  Level FlightAware ADS-B
Thu 03:15:40 AM 51.7035 -2.0007 100° East 508 585 37,000  Level FlightAware ADS-B
Thu 03:16:10 AM 51.6911 -1.8892 100° East 508 585 37,000  Level FlightAware ADS-B
Thu 03:16:41 AM 51.6786 -1.7739 100° East 508 585 37,000  Level FlightAware ADS-B
Thu 03:17:13 AM 51.6654 -1.6589 100° East 507 583 37,000  Level FlightAware ADS-B
Thu 03:17:43 AM 51.6527 -1.5477 100° East 507 583 37,000  Level FlightAware ADS-B
Thu 03:18:13 AM 51.6397 -1.4331 100° East 507 583 37,000  Level FlightAware ADS-B
Thu 03:18:44 AM 51.6267 -1.3181 100° East 507 583 37,000  Level FlightAware ADS-B
Thu 03:19:14 AM 51.6136 -1.2072 101° East 509 586 37,000  Level FlightAware ADS-B
Thu 03:19:45 AM 51.6004 -1.0918 100° East 510 587 37,000  Level FlightAware ADS-B
Thu 03:20:17 AM 51.5864 -0.9766 101° East 511 588 37,000  Level FlightAware ADS-B
Thu 03:20:48 AM 51.5724 -0.8576 101° East 512 589 37,000  Level FlightAware ADS-B
Thu 03:21:18 AM 51.5588 -0.7457 101° East 511 588 37,000  Level FlightAware ADS-B
Thu 03:21:49 AM 51.5452 -0.6342 101° East 510 587 37,000  Level FlightAware ADS-B
Thu 03:22:19 AM 51.5314 -0.5194 101° East 510 587 37,000  Level FlightAware ADS-B
Thu 03:22:50 AM 51.5172 -0.4046 101° East 509 586 37,000  Level FlightAware ADS-B
Thu 03:23:23 AM 51.5021 -0.2826 101° East 508 585 37,000  Level FlightAware ADS-B
Thu 03:23:54 AM 51.4876 -0.1685 101° East 508 585 37,000  Level FlightAware ADS-B
Thu 03:24:25 AM 51.4733 -0.0580 102° East 507 583 37,000  Level FlightAware ADS-B
Thu 03:24:58 AM 51.4579 0.0633 101° East 506 582 37,000  Level FlightAware ADS-B
Thu 03:25:28 AM 51.4435 0.1772 101° East 505 581 37,000  Level FlightAware ADS-B
Thu 03:26:00 AM 51.4283 0.2939 102° East 505 581 37,000  Level FlightAware ADS-B
Thu 03:26:34 AM 51.4121 0.4179 102° East 505 581 37,000  Level FlightAware ADS-B
Thu 03:27:06 AM 51.3966 0.5349 102° East 505 581 37,000  Level FlightAware ADS-B
Thu 03:27:36 AM 51.3821 0.6445 102° East 505 581 37,000  Level FlightAware ADS-B
Thu 03:28:06 AM 51.3674 0.7541 102° East 506 582 37,000  Level FlightAware ADS-B
Thu 03:28:36 AM 51.3524 0.8638 102° East 507 583 37,000  Level FlightAware ADS-B
Thu 03:29:07 AM 51.3372 0.9770 102° East 507 583 37,000  Level FlightAware ADS-B
Thu 03:29:39 AM 51.3211 1.0902 103° East 507 583 37,000  Level FlightAware ADS-B
Thu 03:30:11 AM 51.3040 1.2106 103° East 506 582 37,000  Level FlightAware ADS-B
Thu 03:30:43 AM 51.2844 1.3216 106° East 504 580 37,000  Level FlightAware ADS-B
Thu 03:31:15 AM 51.2632 1.4393 106° East 505 581 37,000  Level FlightAware ADS-B
Thu 03:32:00 AM 51.2339 1.6030 106° East 490 564 37,000  Level FlightAware UK
Thu 03:32:00 AM 51.2360 1.5930 106° East 506 582 37,000  Level FlightAware ADS-B
Thu 03:32:34 AM 51.2130 1.7190 106° East 506 582 37,000  Level FlightAware ADS-B
Thu 03:32:37 AM 51.2109 1.7328 106° East 488 562 37,000  Level FlightAware UK
Thu 03:33:12 AM 51.1890 1.8510 106° East 506 582 37,000  Level FlightAware ADS-B
Thu 03:33:13 AM 51.1882 1.8619 106° East 488 562 37,000  Level FlightAware UK
Thu 03:33:43 AM 51.1688 1.9693 106° East 488 562 37,000  Level FlightAware UK
Thu 03:33:46 AM 51.1670 1.9760 106° East 507 583 37,000  Level FlightAware ADS-B
Thu 03:34:20 AM 51.1480 2.0800 106° East 507 583 37,000  Level FlightAware ADS-B
Thu 03:34:56 AM 51.1220 2.2280 106° East 508 585 37,000  Level FlightAware ADS-B
Thu 03:35:30 AM 51.1000 2.3460 106° East 509 586 37,000  Level FlightAware ADS-B
Thu 03:36:06 AM 51.0750 2.4820 106° East 508 585 37,000  Level FlightAware ADS-B
Thu 03:36:38 AM 51.0550 2.5900 106° East 507 583 37,000  Level FlightAware ADS-B
Thu 03:37:18 AM 51.0280 2.7360 106° East 508 585 37,000  Level FlightAware ADS-B
Thu 03:37:48 AM 51.0080 2.8390 107° East 507 583 37,000  Level FlightAware ADS-B
Thu 03:38:26 AM 50.9810 2.9820 107° East 507 583 37,000  Level FlightAware ADS-B
Thu 03:39:00 AM 50.9580 3.1020 107° East 507 583 37,000  Level FlightAware ADS-B
Thu 03:39:36 AM 50.9340 3.2270 107° East 507 583 37,000  Level FlightAware ADS-B
Thu 03:39:37 AM 50.9326 3.2361 107° East 490 564 37,000  Level FlightAware UK
Thu 03:40:07 AM 50.9119 3.3432 107° East 488 562 37,000  Level FlightAware UK
Thu 03:40:12 AM 50.9090 3.3540 107° East 507 583 37,000  Level FlightAware ADS-B
Thu 03:40:50 AM 50.8840 3.4850 107° East 507 583 37,000  Level FlightAware ADS-B
Thu 03:41:24 AM 50.8590 3.6090 108° East 507 583 37,000  Level FlightAware ADS-B
Thu 03:41:54 AM 50.8390 3.7120 108° East 507 583 37,000  Level FlightAware ADS-B
Thu 03:41:55 AM 50.8369 3.7254 108° East 488 562 37,000  Level FlightAware UK
Thu 03:42:31 AM 50.8130 3.8430 107° East 508 585 37,000  Level FlightAware ADS-B
Thu 03:43:06 AM 50.7890 3.9660 107° East 508 585 37,000  Level FlightAware ADS-B
Thu 03:43:39 AM 50.7650 4.0830 108° East 507 583 37,000  Level FlightAware ADS-B
Thu 03:44:20 AM 50.7350 4.2310 108° East 507 583 37,000  Level FlightAware ADS-B
Thu 03:44:59 AM 50.7080 4.3640 108° East 507 583 37,000  Level FlightAware ADS-B
Thu 03:45:36 AM 50.6820 4.4910 108° East 507 583 37,000  Level FlightAware ADS-B
Thu 03:46:08 AM 50.6580 4.6070 108° East 507 583 37,000  Level FlightAware ADS-B
Thu 03:46:45 AM 50.6310 4.7360 108° East 508 585 37,000  Level FlightAware ADS-B
Thu 03:47:18 AM 50.6060 4.8520 109° East 508 585 37,000 169 Level FlightAware ADS-B
Thu 03:47:56 AM 50.5790 4.9840 108° East 504 580 37,200 514 Climbing FlightAware ADS-B
Thu 03:48:28 AM 50.5550 5.0960 109° East 508 585 37,600 870 Climbing FlightAware ADS-B
Thu 03:49:05 AM 50.5270 5.2290 108° East 510 587 38,200 904 Climbing FlightAware ADS-B
Thu 03:49:41 AM 50.4990 5.3560 109° East 512 589 38,700 706 Climbing FlightAware ADS-B
Thu 03:50:13 AM 50.4750 5.4690 108° East 514 592 39,000 273 Climbing FlightAware ADS-B
Thu 03:50:47 AM 50.4490 5.5880 109° East 514 592 39,000  Level FlightAware ADS-B
Thu 03:51:25 AM 50.4200 5.7220 109° East 512 589 39,000  Level FlightAware ADS-B
Thu 03:51:59 AM 50.3940 5.8370 109° East 511 588 39,000  Level FlightAware ADS-B
Thu 03:52:31 AM 50.3710 5.9460 108° East 509 586 39,000  Level FlightAware ADS-B
Thu 03:53:09 AM 50.3390 6.0850 110° East 509 586 39,000  Level FlightAware ADS-B
Thu 03:53:47 AM 50.3110 6.2130 109° East 509 586 39,000  Level FlightAware ADS-B
Thu 03:54:26 AM 50.2810 6.3480 109° East 509 586 39,000  Level FlightAware ADS-B
Thu 03:55:03 AM 50.2510 6.4770 110° East 511 588 39,000  Level FlightAware ADS-B
Thu 03:55:44 AM 50.2180 6.6260 109° East 512 589 39,000  Level FlightAware ADS-B
Thu 03:56:19 AM 50.1910 6.7410 110° East 513 590 39,000  Level FlightAware ADS-B
Thu 03:56:54 AM 50.1620 6.8660 110° East 515 593 39,000  Level FlightAware ADS-B
Thu 03:57:26 AM 50.1360 6.9780 110° East 515 593 39,000  Level FlightAware ADS-B
Thu 03:58:03 AM 50.1070 7.1070 109° East 516 594 39,000  Level FlightAware ADS-B
Thu 03:58:40 AM 50.0760 7.2360 110° East 517 595 39,000  Level FlightAware ADS-B
Thu 03:59:10 AM 50.0520 7.3380 110° East 517 595 39,000  Level FlightAware ADS-B
Thu 03:59:57 AM 50.0140 7.5010 110° East 517 595 39,000  Level FlightAware ADS-B
Thu 04:00:27 AM 49.9880 7.6090 110° East 518 596 39,000  Level FlightAware ADS-B
Thu 04:01:05 AM 49.9550 7.7410 111° Southeast 518 596 39,000  Level FlightAware ADS-B
Thu 04:01:43 AM 49.9100 7.8620 120° Southeast 511 588 39,000  Level FlightAware ADS-B
Thu 04:02:15 AM 49.8530 7.9410 138° Southeast 504 580 39,000  Level FlightAware ADS-B
Thu 04:02:51 AM 49.7820 8.0110 148° Southeast 503 579 39,000  Level FlightAware ADS-B
Thu 04:03:27 AM 49.7140 8.0770 148° Southeast 503 579 39,000  Level FlightAware ADS-B
Thu 04:03:59 AM 49.6480 8.1420 147° Southeast 504 580 39,000  Level FlightAware ADS-B
Thu 04:04:35 AM 49.5780 8.2090 148° Southeast 505 581 39,000  Level FlightAware ADS-B
Thu 04:05:13 AM 49.5040 8.2820 147° Southeast 505 581 39,000  Level FlightAware ADS-B
Thu 04:05:45 AM 49.4420 8.3420 148° Southeast 505 581 39,000  Level FlightAware ADS-B
Thu 04:06:20 AM 49.3730 8.4080 148° Southeast 506 582 39,000  Level FlightAware ADS-B
Thu 04:06:55 AM 49.3030 8.4770 147° Southeast 506 582 39,000  Level FlightAware ADS-B
Thu 04:07:29 AM 49.2360 8.5400 148° Southeast 505 581 39,000  Level FlightAware ADS-B
Thu 04:08:03 AM 49.1680 8.6060 148° Southeast 505 581 39,000  Level FlightAware ADS-B
Thu 04:08:43 AM 49.0900 8.6800 148° Southeast 505 581 39,000  Level FlightAware ADS-B
Thu 04:09:15 AM 49.0250 8.7430 148° Southeast 505 581 39,000  Level FlightAware ADS-B
Thu 04:09:50 AM 48.9560 8.8080 148° Southeast 506 582 39,000  Level FlightAware ADS-B
Thu 04:10:26 AM 48.8830 8.8760 149° Southeast 506 582 39,000  Level FlightAware ADS-B
Thu 04:10:58 AM 48.8190 8.9380 147° Southeast 506 582 39,000  Level FlightAware ADS-B
Thu 04:11:37 AM 48.7450 9.0070 148° Southeast 507 583 39,000  Level FlightAware ADS-B
Thu 04:12:12 AM 48.6750 9.0730 148° Southeast 507 583 39,000  Level FlightAware ADS-B
Thu 04:12:45 AM 48.6080 9.1360 148° Southeast 507 583 39,000  Level FlightAware ADS-B
Thu 04:13:20 AM 48.5370 9.2010 149° Southeast 508 585 39,000  Level FlightAware ADS-B
Thu 04:13:57 AM 48.4620 9.2710 148° Southeast 509 586 39,000  Level FlightAware ADS-B
Thu 04:14:29 AM 48.3980 9.3310 148° Southeast 510 587 39,000  Level FlightAware ADS-B
Thu 04:15:06 AM 48.3230 9.3990 149° Southeast 510 587 39,000  Level FlightAware ADS-B
Thu 04:15:41 AM 48.2560 9.4630 148° Southeast 510 587 39,000  Level FlightAware ADS-B
Thu 04:16:18 AM 48.1890 9.5450 141° Southeast 510 587 39,000  Level FlightAware ADS-B
Thu 04:16:50 AM 48.1310 9.6220 138° Southeast 510 587 39,000  Level FlightAware ADS-B
Thu 04:17:25 AM 48.0680 9.7030 139° Southeast 511 588 39,000  Level FlightAware ADS-B
Thu 04:18:00 AM 48.0070 9.7810 139° Southeast 511 588 39,000  Level FlightAware ADS-B
Thu 04:18:34 AM 47.9440 9.8610 140° Southeast 511 588 39,000  Level FlightAware ADS-B
Thu 04:19:11 AM 47.8800 9.9440 139° Southeast 512 589 39,000  Level FlightAware ADS-B
Thu 04:19:47 AM 47.8120 10.0260 141° Southeast 512 589 39,000  Level FlightAware ADS-B
Thu 04:20:20 AM 47.7520 10.0940 143° Southeast 512 589 39,000  Level FlightAware ADS-B
Thu 04:20:55 AM 47.6850 10.1670 144° Southeast 512 589 39,000  Level FlightAware ADS-B
Thu 04:21:28 AM 47.6200 10.2400 143° Southeast 513 590 39,000  Level FlightAware ADS-B
Thu 04:22:07 AM 47.5530 10.3280 138° Southeast 512 589 39,000  Level FlightAware ADS-B
Thu 04:22:48 AM 47.4840 10.4290 135° Southeast 511 588 39,000  Level FlightAware ADS-B
Thu 04:23:23 AM 47.4290 10.5100 135° Southeast 512 589 39,000  Level FlightAware ADS-B
Thu 04:23:56 AM 47.3690 10.5950 136° Southeast 511 588 39,000  Level FlightAware ADS-B
Thu 04:24:33 AM 47.3050 10.6870 136° Southeast 511 588 39,000  Level FlightAware ADS-B
Thu 04:25:04 AM 47.2520 10.7620 136° Southeast 511 588 39,000  Level FlightAware ADS-B
Thu 04:25:42 AM 47.1880 10.8540 136° Southeast 510 587 39,000  Level FlightAware ADS-B
Thu 04:26:19 AM 47.1240 10.9450 136° Southeast 510 587 39,000  Level FlightAware ADS-B
Thu 04:26:51 AM 47.0690 11.0210 137° Southeast 509 586 39,000  Level FlightAware ADS-B
Thu 04:27:26 AM 47.0130 11.1000 136° Southeast 509 586 39,000  Level FlightAware ADS-B
Thu 04:28:03 AM 46.9490 11.1890 136° Southeast 509 586 39,000  Level FlightAware ADS-B
Thu 04:28:35 AM 46.8940 11.2650 137° Southeast 510 587 39,000  Level FlightAware ADS-B
Thu 04:29:19 AM 46.8200 11.3690 136° Southeast 510 587 39,000  Level FlightAware ADS-B
Thu 04:29:54 AM 46.7610 11.4500 137° Southeast 510 587 39,000  Level FlightAware ADS-B
Thu 04:30:30 AM 46.6980 11.5380 136° Southeast 510 587 39,000  Level FlightAware ADS-B
Thu 04:31:12 AM 46.6280 11.6340 137° Southeast 510 587 39,000  Level FlightAware ADS-B
Thu 04:31:47 AM 46.5660 11.7190 137° Southeast 510 587 39,000  Level FlightAware ADS-B
Thu 04:32:21 AM 46.5050 11.8040 136° Southeast 510 587 39,000  Level FlightAware ADS-B
Thu 04:32:58 AM 46.4450 11.8860 137° Southeast 510 587 39,000  Level FlightAware ADS-B
Thu 04:33:29 AM 46.3910 11.9580 137° Southeast 510 587 39,000  Level FlightAware ADS-B
Thu 04:34:03 AM 46.3310 12.0400 137° Southeast 509 586 39,000  Level FlightAware ADS-B
Thu 04:34:40 AM 46.2690 12.1240 137° Southeast 510 587 39,000  Level FlightAware ADS-B
Thu 04:35:15 AM 46.2080 12.2070 137° Southeast 510 587 39,000  Level FlightAware ADS-B
Thu 04:36:00 AM 46.1290 12.3120 137° Southeast 510 587 39,000  Level FlightAware ADS-B
Thu 04:36:35 AM 46.0690 12.3930 137° Southeast 511 588 39,000  Level FlightAware ADS-B
Thu 04:37:05 AM 46.0160 12.4620 138° Southeast 511 588 39,000  Level FlightAware ADS-B
Thu 04:37:45 AM 45.9520 12.5470 137° Southeast 510 587 39,000  Level FlightAware ADS-B
Thu 04:38:17 AM 45.8900 12.6310 137° Southeast 511 588 39,000  Level FlightAware ADS-B
Thu 04:38:53 AM 45.8270 12.7130 138° Southeast 512 589 39,000  Level FlightAware ADS-B
Thu 04:39:24 AM 45.7760 12.7800 137° Southeast 512 589 39,000  Level FlightAware ADS-B
Thu 04:40:05 AM 45.7040 12.8760 137° Southeast 507 583 39,000  Level FlightAware ADS-B
Thu 04:40:35 AM 45.6530 12.9430 137° Southeast 508 585 39,000  Level FlightAware ADS-B
Thu 04:41:15 AM 45.5850 13.0320 137° Southeast 508 585 39,000  Level FlightAware ADS-B
Thu 04:41:45 AM 45.5310 13.1000 139° Southeast 508 585 39,000  Level FlightAware ADS-B
Thu 04:42:20 AM 45.4710 13.1870 135° Southeast 512 589 39,000  Level FlightAware ADS-B
Thu 04:43:05 AM 45.4070 13.3060 127° Southeast 508 585 39,000  Level FlightAware ADS-B
Thu 04:43:41 AM 45.3560 13.3990 128° Southeast 509 586 39,000  Level FlightAware ADS-B
Thu 04:44:17 AM 45.3050 13.4980 126° Southeast 509 586 39,000  Level FlightAware ADS-B
Thu 04:44:47 AM 45.2700 13.5650 127° Southeast 509 586 39,000  Level FlightAware ADS-B
Thu 04:45:26 AM 45.2100 13.6770 127° Southeast 508 585 39,000  Level FlightAware ADS-B
Thu 04:46:02 AM 45.1610 13.7700 127° Southeast 508 585 39,000  Level FlightAware ADS-B
Thu 04:46:32 AM 45.1140 13.8580 127° Southeast 508 585 39,000  Level FlightAware ADS-B
Thu 04:47:06 AM 45.0680 13.9420 128° Southeast 508 585 39,000  Level FlightAware ADS-B
Thu 04:47:46 AM 45.0130 14.0450 127° Southeast 507 583 39,000  Level FlightAware ADS-B
Thu 04:48:16 AM 44.9660 14.1320 127° Southeast 507 583 39,000  Level FlightAware ADS-B
Thu 04:48:57 AM 44.9060 14.2420 128° Southeast 507 583 39,000  Level FlightAware ADS-B
Thu 04:49:27 AM 44.8660 14.3150 128° Southeast 506 582 39,000  Level FlightAware ADS-B
Thu 04:50:07 AM 44.8090 14.4200 127° Southeast 507 583 39,000  Level FlightAware ADS-B
Thu 04:50:37 AM 44.7650 14.5010 127° Southeast 507 583 39,000  Level FlightAware ADS-B
Thu 04:51:12 AM 44.7150 14.5920 128° Southeast 508 585 39,000  Level FlightAware ADS-B
Thu 04:51:48 AM 44.6660 14.6810 128° Southeast 507 583 39,000  Level FlightAware ADS-B
Thu 04:52:28 AM 44.6120 14.7800 127° Southeast 509 586 39,000  Level FlightAware ADS-B
Thu 04:53:10 AM 44.5440 14.9020 128° Southeast 505 581 39,000  Level FlightAware ADS-B
Thu 04:53:40 AM 44.5040 14.9720 129° Southeast 504 580 39,000  Level FlightAware ADS-B
Thu 04:54:15 AM 44.4500 15.0690 128° Southeast 505 581 39,000  Level FlightAware ADS-B
Thu 04:54:50 AM 44.3990 15.1600 128° Southeast 505 581 39,000  Level FlightAware ADS-B
Thu 04:55:30 AM 44.3410 15.2630 128° Southeast 505 581 39,000  Level FlightAware ADS-B
Thu 04:56:00 AM 44.2970 15.3410 128° Southeast 505 581 39,000  Level FlightAware ADS-B
Thu 04:56:35 AM 44.2460 15.4310 128° Southeast 505 581 39,000  Level FlightAware ADS-B
Thu 04:57:15 AM 44.1870 15.5370 128° Southeast 505 581 39,000  Level FlightAware ADS-B
Thu 04:57:49 AM 44.1390 15.6200 129° Southeast 504 580 39,000  Level FlightAware ADS-B
Thu 04:58:22 AM 44.0880 15.7120 128° Southeast 510 587 39,000  Level FlightAware ADS-B
Thu 04:58:58 AM 44.0360 15.8020 129° Southeast 509 586 39,000  Level FlightAware ADS-B
Thu 04:59:34 AM 43.9820 15.8960 129° Southeast 508 585 39,000  Level FlightAware ADS-B
Thu 05:00:10 AM 43.9300 15.9850 129° Southeast 508 585 39,000  Level FlightAware ADS-B
Thu 05:00:42 AM 43.8820 16.0690 128° Southeast 507 583 39,000  Level FlightAware ADS-B
Thu 05:01:14 AM 43.8350 16.1470 130° Southeast 507 583 39,000  Level FlightAware ADS-B
Thu 05:01:54 AM 43.7770 16.2480 128° Southeast 507 583 39,000  Level FlightAware ADS-B
Thu 05:02:30 AM 43.7240 16.3390 129° Southeast 506 582 39,000  Level FlightAware ADS-B
Thu 05:03:16 AM 43.6580 16.4520 129° Southeast 501 577 39,000  Level FlightAware ADS-B
Thu 05:03:51 AM 43.6070 16.5400 129° Southeast 506 582 39,000  Level FlightAware ADS-B
Thu 05:04:31 AM 43.5480 16.6400 129° Southeast 507 583 39,000  Level FlightAware ADS-B
Thu 05:05:07 AM 43.4980 16.7230 130° Southeast 507 583 39,000  Level FlightAware ADS-B
Thu 05:05:42 AM 43.4410 16.8210 129° Southeast 508 585 39,000  Level FlightAware ADS-B
Thu 05:06:18 AM 43.3860 16.9130 129° Southeast 507 583 39,000  Level FlightAware ADS-B
Thu 05:06:52 AM 43.3360 16.9980 129° Southeast 508 585 39,000  Level FlightAware ADS-B
Thu 05:07:29 AM 43.2830 17.0850 130° Southeast 508 585 39,000  Level FlightAware ADS-B
Thu 05:08:04 AM 43.2290 17.1740 130° Southeast 508 585 39,000  Level FlightAware ADS-B
Thu 05:08:40 AM 43.1740 17.2660 129° Southeast 508 585 39,000  Level FlightAware ADS-B
Thu 05:09:16 AM 43.1200 17.3550 130° Southeast 509 586 39,000  Level FlightAware ADS-B
Thu 05:09:52 AM 43.0660 17.4450 129° Southeast 509 586 39,000  Level FlightAware ADS-B
Thu 05:10:32 AM 43.0080 17.5410 130° Southeast 509 586 39,000  Level FlightAware ADS-B
Thu 05:11:08 AM 42.9550 17.6280 130° Southeast 509 586 39,000  Level FlightAware ADS-B
Thu 05:11:45 AM 42.8970 17.7220 130° Southeast 509 586 39,000  Level FlightAware ADS-B
Thu 05:12:16 AM 42.8500 17.7980 130° Southeast 509 586 39,000  Level FlightAware ADS-B
Thu 05:12:52 AM 42.7940 17.8890 130° Southeast 509 586 39,000  Level FlightAware ADS-B
Thu 05:13:28 AM 42.7430 17.9720 130° Southeast 508 585 39,000  Level FlightAware ADS-B
Thu 05:14:02 AM 42.6900 18.0580 130° Southeast 509 586 39,000  Level FlightAware ADS-B
Thu 05:14:44 AM 42.6250 18.1630 130° Southeast 511 588 39,000  Level FlightAware ADS-B
Thu 05:15:20 AM 42.5690 18.2510 131° Southeast 510 587 39,000  Level FlightAware ADS-B
Thu 05:15:56 AM 42.5100 18.3330 134° Southeast 511 588 39,000  Level FlightAware ADS-B
Thu 05:16:28 AM 42.4590 18.4000 136° Southeast 512 589 39,000  Level FlightAware ADS-B
Thu 05:17:02 AM 42.3980 18.4810 136° Southeast 512 589 39,000  Level FlightAware ADS-B
Thu 05:17:40 AM 42.3340 18.5670 135° Southeast 512 589 39,000  Level FlightAware ADS-B
Thu 05:18:16 AM 42.2740 18.6480 135° Southeast 511 588 39,000  Level FlightAware ADS-B
Thu 05:18:48 AM 42.2210 18.7200 135° Southeast 512 589 39,000  Level FlightAware ADS-B
Thu 05:19:34 AM 42.1450 18.8220 135° Southeast 512 589 39,000  Level FlightAware ADS-B
Thu 05:20:06 AM 42.0900 18.8970 135° Southeast 512 589 39,000  Level FlightAware ADS-B
Thu 05:20:42 AM 42.0290 18.9780 135° Southeast 513 590 39,000  Level FlightAware ADS-B
Thu 05:21:18 AM 41.9680 19.0590 135° Southeast 514 592 39,000  Level FlightAware ADS-B
Thu 05:21:48 AM 41.9220 19.1190 136° Southeast 514 592 39,000  Level FlightAware ADS-B
Thu 05:22:26 AM 41.8530 19.2110 135° Southeast 514 592 39,000  Level FlightAware ADS-B
Thu 05:23:03 AM 41.7910 19.2900 136° Southeast 514 592 39,000  Level FlightAware ADS-B
Thu 05:23:36 AM 41.7340 19.3620 137° Southeast 514 592 39,000  Level FlightAware ADS-B
Thu 05:24:10 AM 41.6750 19.4370 136° Southeast 514 592 39,000  Level FlightAware ADS-B
Thu 05:24:44 AM 41.6150 19.5140 136° Southeast 514 592 39,000  Level FlightAware ADS-B
Thu 05:25:16 AM 41.5610 19.5840 136° Southeast 514 592 39,000  Level FlightAware ADS-B
Thu 05:25:44 AM 41.5120 19.6450 137° Southeast 513 590 39,000  Level FlightAware ADS-B
Thu 05:27:57 AM 41.3060 19.9070 123° Southeast 512 589 39,000  Level FlightAware ADS-B
Thu 05:28:00 AM 41.3321 20.0111 123° Southeast  Level Estimated
Thu 05:28:28 AM 41.2510 19.9760 137° Southeast 512 589 39,000  Level FlightAware ADS-B
Thu 05:29:09 AM 41.1610 20.0880 137° Southeast 512 589 39,000  Level FlightAware ADS-B
Thu 05:29:41 AM 41.1070 20.1550 137° Southeast 511 588 39,000  Level FlightAware ADS-B
Thu 05:30:17 AM 41.0440 20.2340 137° Southeast 511 588 39,000  Level FlightAware ADS-B
Thu 05:30:53 AM 40.9820 20.3110 137° Southeast 510 587 39,000  Level FlightAware ADS-B
Thu 05:31:29 AM 40.9250 20.3820 137° Southeast 511 588 39,000  Level FlightAware ADS-B
Thu 05:32:02 AM 40.8620 20.4590 137° Southeast 512 589 39,000  Level FlightAware ADS-B
Thu 05:32:39 AM 40.7990 20.5380 136° Southeast 513 590 39,000  Level FlightAware ADS-B
Thu 05:33:10 AM 40.7450 20.6040 137° Southeast 512 589 39,000  Level FlightAware ADS-B
Thu 05:33:46 AM 40.6810 20.6830 137° Southeast 511 588 39,000  Level FlightAware ADS-B
Thu 05:34:22 AM 40.6200 20.7570 137° Southeast 512 589 39,000  Level FlightAware ADS-B
Thu 05:34:56 AM 40.5610 20.8290 137° Southeast 511 588 39,000  Level FlightAware ADS-B
Thu 05:35:32 AM 40.4980 20.9050 137° Southeast 512 589 39,000  Level FlightAware ADS-B
Thu 05:36:04 AM 40.4420 20.9720 138° Southeast 512 589 39,000  Level FlightAware ADS-B
Thu 05:36:38 AM 40.3830 21.0440 137° Southeast 511 588 39,000  Level FlightAware ADS-B
Thu 05:37:16 AM 40.3170 21.1240 137° Southeast 510 587 39,000  Level FlightAware ADS-B
Thu 05:37:52 AM 40.2550 21.1990 137° Southeast 509 586 39,000  Level FlightAware ADS-B
Thu 05:38:28 AM 40.1920 21.2760 137° Southeast 510 587 39,000  Level FlightAware ADS-B
Thu 05:39:00 AM 40.1380 21.3390 138° Southeast 511 588 39,000  Level FlightAware ADS-B
Thu 05:39:36 AM 40.0740 21.4160 137° Southeast 511 588 39,000  Level FlightAware ADS-B
Thu 05:40:21 AM 39.9950 21.5090 138° Southeast 511 588 39,000  Level FlightAware ADS-B
Thu 05:40:52 AM 39.9400 21.5760 137° Southeast 511 588 39,000  Level FlightAware ADS-B
Thu 05:41:28 AM 39.8780 21.6440 140° Southeast 510 587 39,000  Level FlightAware ADS-B
Thu 05:42:04 AM 39.8120 21.7180 139° Southeast 509 586 39,000  Level FlightAware ADS-B
Thu 05:42:36 AM 39.7540 21.7840 139° Southeast 511 588 39,000  Level FlightAware ADS-B
Thu 05:43:10 AM 39.6930 21.8520 139° Southeast 511 588 39,000  Level FlightAware ADS-B
Thu 05:43:50 AM 39.6220 21.9300 140° Southeast 510 587 39,000  Level FlightAware ADS-B
Thu 05:44:22 AM 39.5640 21.9940 140° Southeast 511 588 39,000  Level FlightAware ADS-B
Thu 05:44:58 AM 39.5010 22.0660 139° Southeast 509 586 39,000  Level FlightAware ADS-B
Thu 05:45:35 AM 39.4350 22.1400 139° Southeast 509 586 39,000  Level FlightAware ADS-B
Thu 05:46:10 AM 39.3710 22.2090 140° Southeast 509 586 39,000  Level FlightAware ADS-B
Thu 05:46:42 AM 39.3140 22.2740 139° Southeast 508 585 39,000  Level FlightAware ADS-B
Thu 05:47:18 AM 39.2490 22.3450 140° Southeast 507 583 39,000  Level FlightAware ADS-B
Thu 05:47:54 AM 39.1890 22.4100 140° Southeast 507 583 39,000  Level FlightAware ADS-B
Thu 05:48:30 AM 39.1210 22.4860 139° Southeast 506 582 39,000  Level FlightAware ADS-B
Thu 05:49:03 AM 39.0620 22.5500 140° Southeast 505 581 39,000  Level FlightAware ADS-B
Thu 05:49:38 AM 39.0010 22.6170 140° Southeast 505 581 39,000  Level FlightAware ADS-B
Thu 05:50:13 AM 38.9410 22.6820 140° Southeast 504 580 39,000  Level FlightAware ADS-B
Thu 05:50:48 AM 38.8770 22.7520 140° Southeast 505 581 39,000  Level FlightAware ADS-B
Thu 05:51:23 AM 38.8130 22.8200 140° Southeast 505 581 39,000  Level FlightAware ADS-B
Thu 05:51:59 AM 38.7490 22.8890 140° Southeast 506 582 39,000  Level FlightAware ADS-B
Thu 05:52:36 AM 38.6810 22.9630 140° Southeast 507 583 39,000  Level FlightAware ADS-B
Thu 05:53:07 AM 38.6270 23.0210 140° Southeast 507 583 39,000  Level FlightAware ADS-B
Thu 05:53:44 AM 38.5590 23.0940 140° Southeast 508 585 39,000  Level FlightAware ADS-B
Thu 05:54:19 AM 38.4960 23.1620 140° Southeast 508 585 39,000  Level FlightAware ADS-B
Thu 05:54:53 AM 38.4360 23.2260 140° Southeast 508 585 39,000  Level FlightAware ADS-B
Thu 05:55:28 AM 38.3720 23.2950 140° Southeast 510 587 39,000  Level FlightAware ADS-B
Thu 05:56:05 AM 38.3050 23.3640 141° Southeast 511 588 39,000  Level FlightAware ADS-B
Thu 05:56:37 AM 38.2480 23.4260 139° Southeast 512 589 39,000  Level FlightAware ADS-B
Thu 05:57:14 AM 38.1790 23.5000 140° Southeast 514 592 39,000  Level FlightAware ADS-B
Thu 05:57:49 AM 38.1150 23.5650 141° Southeast 515 593 39,000  Level FlightAware ADS-B
Thu 05:58:23 AM 38.0570 23.6270 140° Southeast 514 592 39,000  Level FlightAware ADS-B
Thu 05:58:59 AM 37.9870 23.7000 141° Southeast 515 593 39,000  Level FlightAware ADS-B
Thu 05:59:35 AM 37.9220 23.7700 140° Southeast 516 594 39,000  Level FlightAware ADS-B
Thu 06:00:09 AM 37.8630 23.8420 136° Southeast 523 602 39,000  Level FlightAware ADS-B
Thu 06:00:45 AM 37.8080 23.9280 129° Southeast 527 606 39,000  Level FlightAware ADS-B
Thu 06:01:21 AM 37.7580 24.0200 124° Southeast 532 612 39,000  Level FlightAware ADS-B
Thu 06:01:52 AM 37.7180 24.1050 121° Southeast 533 613 39,000  Level FlightAware ADS-B
Thu 06:02:30 AM 37.6690 24.2060 121° Southeast 534 615 39,000  Level FlightAware ADS-B
Thu 06:03:05 AM 37.6240 24.2960 122° Southeast 534 615 39,000  Level FlightAware ADS-B
Thu 06:03:38 AM 37.5820 24.3840 121° Southeast 535 616 39,000  Level FlightAware ADS-B
Thu 06:04:12 AM 37.5370 24.4740 122° Southeast 537 618 39,000  Level FlightAware ADS-B
Thu 06:04:49 AM 37.4880 24.5750 121° Southeast 538 619 39,000  Level FlightAware ADS-B
Thu 06:05:24 AM 37.4420 24.6680 122° Southeast 539 620 39,000  Level FlightAware ADS-B
Thu 06:05:59 AM 37.3960 24.7580 123° Southeast 540 621 39,000  Level FlightAware ADS-B
Thu 06:06:35 AM 37.3480 24.8570 121° Southeast 541 623 39,000  Level FlightAware ADS-B
Thu 06:07:08 AM 37.3040 24.9450 122° Southeast 542 624 39,000  Level FlightAware ADS-B
Thu 06:07:43 AM 37.2610 25.0300 122° Southeast 542 624 39,000  Level FlightAware ADS-B
Thu 06:08:19 AM 37.2100 25.1340 122° Southeast 543 625 39,000  Level FlightAware ADS-B
Thu 06:08:54 AM 37.1630 25.2240 123° Southeast 542 624 39,000  Level FlightAware ADS-B
Thu 06:09:31 AM 37.1140 25.3230 122° Southeast 542 624 39,000  Level FlightAware ADS-B
Thu 06:10:01 AM 37.0730 25.4050 122° Southeast 541 623 39,000  Level FlightAware ADS-B
Thu 06:10:37 AM 37.0250 25.4980 123° Southeast 542 624 39,000  Level FlightAware ADS-B
Thu 06:11:23 AM 36.9660 25.6140 122° Southeast 542 624 39,000  Level FlightAware ADS-B
Thu 06:11:55 AM 36.9200 25.7040 123° Southeast 542 624 39,000  Level FlightAware ADS-B
Thu 06:12:31 AM 36.8710 25.7990 123° Southeast 541 623 39,000  Level FlightAware ADS-B
Thu 06:13:07 AM 36.8230 25.8940 122° Southeast 541 623 39,000  Level FlightAware ADS-B
Thu 06:13:43 AM 36.7740 25.9880 123° Southeast 541 623 39,000  Level FlightAware ADS-B
Thu 06:14:15 AM 36.7310 26.0720 123° Southeast 541 623 39,000  Level FlightAware ADS-B
Thu 06:14:51 AM 36.6820 26.1660 123° Southeast 540 621 39,000  Level FlightAware ADS-B
Thu 06:15:27 AM 36.6330 26.2630 122° Southeast 540 621 39,000  Level FlightAware ADS-B
Thu 06:16:03 AM 36.5850 26.3540 123° Southeast 540 621 39,000  Level FlightAware ADS-B
Thu 06:16:35 AM 36.5410 26.4380 123° Southeast 540 621 39,000  Level FlightAware ADS-B
Thu 06:17:09 AM 36.4940 26.5290 123° Southeast 540 621 39,000  Level FlightAware ADS-B
Thu 06:17:47 AM 36.4430 26.6280 123° Southeast 540 621 39,000  Level FlightAware ADS-B
Thu 06:18:19 AM 36.4000 26.7080 124° Southeast 540 621 39,000  Level FlightAware ADS-B
Thu 06:18:55 AM 36.3510 26.8020 123° Southeast 541 623 39,000  Level FlightAware ADS-B
Thu 06:19:31 AM 36.3010 26.8950 124° Southeast 541 623 39,000  Level FlightAware ADS-B
Thu 06:20:03 AM 36.2580 26.9750 124° Southeast 540 621 39,000  Level FlightAware ADS-B
Thu 06:20:43 AM 36.2120 27.0640 123° Southeast 540 621 39,000  Level FlightAware ADS-B
Thu 06:21:23 AM 36.1530 27.1770 123° Southeast 540 621 39,000  Level FlightAware ADS-B
Thu 06:22:01 AM 36.1090 27.2610 123° Southeast 540 621 39,000  Level FlightAware ADS-B
Thu 06:22:37 AM 36.0670 27.3400 123° Southeast 540 621 39,000  Level FlightAware ADS-B
Thu 06:23:13 AM 36.0250 27.4200 123° Southeast 540 621 39,000  Level FlightAware ADS-B
Thu 06:23:49 AM 35.9840 27.4990 123° Southeast 540 621 39,000  Level FlightAware ADS-B
Thu 06:24:25 AM 35.9420 27.5780 123° Southeast 540 621 39,000  Level FlightAware ADS-B
Thu 06:25:01 AM 35.9000 27.6570 123° Southeast 540 621 39,000  Level FlightAware ADS-B
Thu 06:25:37 AM 35.8590 27.7360 123° Southeast 540 621 39,000  Level FlightAware ADS-B
Thu 06:26:14 AM 35.8160 27.8180 123° Southeast 540 621 39,000  Level FlightAware ADS-B
Thu 06:26:50 AM 35.7740 27.8970 123° Southeast 540 621 39,000  Level FlightAware ADS-B
Thu 06:27:26 AM 35.7330 27.9760 123° Southeast 540 621 39,000  Level FlightAware ADS-B
Thu 06:28:00 AM 35.5980 28.1990 127° Southeast 537 618 39,000  Level FlightAware ADS-B
Thu 06:28:36 AM 35.5480 28.2900 124° Southeast 537 618 39,000  Level FlightAware ADS-B
Thu 06:29:14 AM 35.4960 28.3860 124° Southeast 537 618 39,000  Level FlightAware ADS-B
Thu 06:29:46 AM 35.4510 28.4670 124° Southeast 536 617 39,000  Level FlightAware ADS-B
Thu 06:30:38 AM 35.3800 28.5950 124° Southeast 422 486 39,000  Level FlightAware ADS-B
Thu 06:31:16 AM 35.3230 28.6960 125° Southeast 536 617 39,000  Level FlightAware ADS-B
Thu 06:31:52 AM 35.2740 28.7830 125° Southeast 536 617 39,000  Level FlightAware ADS-B
Thu 06:32:28 AM 35.2240 28.8730 124° Southeast 537 618 39,000  Level FlightAware ADS-B
Thu 06:33:06 AM 35.1770 28.9590 124° Southeast 537 618 39,000  Level FlightAware ADS-B
Thu 06:33:34 AM 35.1320 29.0390 125° Southeast 537 618 39,000  Level FlightAware ADS-B
Thu 06:34:09 AM 35.0830 29.1240 125° Southeast 537 618 39,000  Level FlightAware ADS-B
Thu 06:34:50 AM 35.0320 29.2170 124° Southeast 537 618 39,000  Level FlightAware ADS-B
Thu 06:35:34 AM 34.9720 29.3220 125° Southeast 537 618 39,000  Level FlightAware ADS-B
Thu 06:36:10 AM 34.9290 29.3990 124° Southeast 537 618 39,000  Level FlightAware ADS-B
Thu 06:36:45 AM 34.8620 29.5150 125° Southeast 538 619 39,000  Level FlightAware ADS-B
Thu 06:37:21 AM 34.8110 29.6050 125° Southeast 537 618 39,000  Level FlightAware ADS-B
Thu 06:37:55 AM 34.7630 29.6870 125° Southeast 538 619 39,000  Level FlightAware ADS-B
Thu 06:38:31 AM 34.7150 29.7710 125° Southeast 537 618 39,000  Level FlightAware ADS-B
Thu 06:39:06 AM 34.6630 29.8620 125° Southeast 536 617 39,000  Level FlightAware ADS-B
Thu 06:39:47 AM 34.6150 29.9470 124° Southeast 536 617 39,000  Level FlightAware ADS-B
Thu 06:40:23 AM 34.5720 30.0230 124° Southeast 536 617 39,000  Level FlightAware ADS-B
Thu 06:41:11 AM 34.4960 30.1810 120° Southeast 536 617 39,000  Level FlightAware ADS-B
Thu 06:41:46 AM 34.4500 30.2750 121° Southeast 537 618 39,000  Level FlightAware ADS-B
Thu 06:42:22 AM 34.4070 30.3670 120° Southeast 537 618 39,000  Level FlightAware ADS-B
Thu 06:42:57 AM 34.3620 30.4610 120° Southeast 540 621 39,000  Level FlightAware ADS-B
Thu 06:43:34 AM 34.3170 30.5550 120° Southeast 539 620 39,000  Level FlightAware ADS-B
Thu 06:44:07 AM 34.2760 30.6380 121° Southeast 536 617 39,000  Level FlightAware ADS-B
Thu 06:44:43 AM 34.2280 30.7360 121° Southeast 530 610 39,000  Level FlightAware ADS-B
Thu 06:45:17 AM 34.1860 30.8260 119° Southeast 529 609 39,000  Level FlightAware ADS-B
Thu 06:45:58 AM 34.1350 30.9280 121° Southeast 527 606 39,000  Level FlightAware ADS-B
Thu 06:46:32 AM 34.0930 31.0150 120° Southeast 526 605 39,000  Level FlightAware ADS-B
Thu 06:47:08 AM 34.0480 31.1070 121° Southeast 526 605 39,000  Level FlightAware ADS-B
Thu 06:47:43 AM 34.0050 31.1950 120° Southeast 525 604 39,000  Level FlightAware ADS-B
Thu 06:48:19 AM 33.9590 31.2870 121° Southeast 525 604 39,000  Level FlightAware ADS-B
Thu 06:48:54 AM 33.9190 31.3680 121° Southeast 525 604 39,000  Level FlightAware ADS-B
Thu 06:49:30 AM 33.8700 31.4670 121° Southeast 529 609 39,000  Level FlightAware ADS-B
Thu 06:50:05 AM 33.8280 31.5530 120° Southeast 530 610 39,000  Level FlightAware ADS-B
Thu 06:50:36 AM 33.7910 31.6260 121° Southeast 528 608 39,000  Level FlightAware ADS-B
Thu 06:51:15 AM 33.7380 31.7340 121° Southeast 528 608 39,000  Level FlightAware ADS-B
Thu 06:51:51 AM 33.6940 31.8220 121° Southeast 527 606 39,000  Level FlightAware ADS-B
Thu 06:52:21 AM 33.6550 31.8980 122° Southeast 528 608 39,000  Level FlightAware ADS-B
Thu 06:52:57 AM 33.6110 31.9850 121° Southeast 528 608 39,000  Level FlightAware ADS-B
Thu 06:53:32 AM 33.5670 32.0730 121° Southeast 528 608 39,000  Level FlightAware ADS-B
Thu 06:54:07 AM 33.5250 32.1580 121° Southeast 527 606 39,000 -80 Level FlightAware ADS-B
Thu 06:54:47 AM 33.4710 32.2630 122° Southeast 525 604 38,900 -711 Descending FlightAware ADS-B
Thu 06:55:23 AM 33.4270 32.3500 121° Southeast 528 608 38,100 -1,543 Descending FlightAware ADS-B
Thu 06:55:57 AM 33.3840 32.4360 121° Southeast 534 615 37,100 -1,610 Descending FlightAware ADS-B
Thu 06:56:45 AM 33.3240 32.5530 122° Southeast 541 623 35,900 -1,227 Descending FlightAware ADS-B
Thu 06:57:25 AM 33.2740 32.6520 121° Southeast 535 616 35,300 -1,579 Descending FlightAware ADS-B
Thu 06:58:01 AM 33.2260 32.7440 122° Southeast 525 604 33,900 -2,174 Descending FlightAware ADS-B
Thu 06:58:34 AM 33.1890 32.8170 121° Southeast 518 596 32,800 -2,270 Descending FlightAware ADS-B
Thu 06:59:15 AM 33.1350 32.9210 122° Southeast 502 578 31,100 -2,462 Descending FlightAware ADS-B
Thu 06:59:52 AM 33.0880 33.0120 122° Southeast 496 571 29,600 -2,282 Descending FlightAware ADS-B
Thu 07:00:26 AM 33.0470 33.0900 122° Southeast 484 557 28,400 -2,031 Descending FlightAware ADS-B
Thu 07:00:57 AM 33.0160 33.1510 121° Southeast 473 544 27,400 -2,206 Descending FlightAware ADS-B
Thu 07:01:34 AM 32.9670 33.2460 122° Southeast 456 525 25,900 -2,219 Descending FlightAware ADS-B
Thu 07:02:10 AM 32.9270 33.3220 122° Southeast 440 506 24,700 -986 Descending FlightAware ADS-B
Thu 07:02:47 AM 32.8940 33.3870 121° Southeast 440 506 24,700 -1,917 Level FlightAware ADS-B
Thu 07:03:22 AM 32.8520 33.4660 122° Southeast 417 480 22,400 -2,789 Descending FlightAware ADS-B
Thu 07:03:58 AM 32.8170 33.5330 122° Southeast 405 466 21,400 -1,808 Descending FlightAware ADS-B
Thu 07:04:35 AM 32.7800 33.6020 123° Southeast 395 455 20,200 -1,791 Descending FlightAware ADS-B
Thu 07:05:05 AM 32.7520 33.6570 121° Southeast 388 447 19,400 -1,701 Descending FlightAware ADS-B
Thu 07:05:42 AM 32.7160 33.7250 122° Southeast 380 437 18,300 -1,726 Descending FlightAware ADS-B
Thu 07:06:18 AM 32.6830 33.7860 123° Southeast 372 428 17,300 -1,676 Descending FlightAware ADS-B
Thu 07:06:50 AM 32.6540 33.8420 122° Southeast 375 432 16,400 -1,676 Descending FlightAware ADS-B
Thu 07:07:26 AM 32.6210 33.9040 122° Southeast 374 430 15,400 -1,644 Descending FlightAware ADS-B
Thu 07:08:03 AM 32.5870 33.9690 122° Southeast 364 419 14,400 -1,622 Descending FlightAware ADS-B
Thu 07:08:40 AM 32.5530 34.0320 123° Southeast 354 407 13,400 -1,652 Descending FlightAware ADS-B
Thu 07:09:12 AM 32.5260 34.0840 122° Southeast 347 399 12,500 -1,588 Descending FlightAware ADS-B
Thu 07:09:48 AM 32.4950 34.1420 122° Southeast 340 391 11,600 -1,417 Descending FlightAware ADS-B
Thu 07:10:24 AM 32.4590 34.1910 131° Southeast 330 380 10,800 -857 Descending FlightAware ADS-B
Thu 07:11:26 AM 32.4000 34.2610 135° Southeast 294 338 10,200 -769 Descending FlightAware ADS-B
Thu 07:11:42 AM 32.3810 34.2830 136° Southeast 287 330 9,800 -1,375 Descending FlightAware ADS-B
Thu 07:12:14 AM 32.3500 34.3200 135° Southeast 287 330 9,100 -1,200 Descending FlightAware ADS-B
Thu 07:12:32 AM 32.3330 34.3400 135° Southeast 290 334 8,800 -391 Descending FlightAware ADS-B
Thu 07:13:00 AM 32.3100 34.3670 135° Southeast 290 334 8,800 -947 Level FlightAware ADS-B
Thu 07:13:48 AM 32.2600 34.4250 136° Southeast 284 327 7,600 -986 Descending FlightAware ADS-B
Thu 07:14:13 AM 32.2400 34.4480 136° Southeast 284 327 7,600 -565 Level FlightAware ADS-B
Thu 07:16:00 AM 32.0863 34.6950 125° Southeast  Level FlightAware Approximate
Thu 07:16:06 AM 32.1610 34.5890 125° Southeast 273 314 6,300  Level FlightAware ADS-B
Thu 07:16:33 AM 32.1430 34.6230 122° Southeast 272 313 6,100 -471 Descending FlightAware ADS-B
Thu 07:16:57 AM 32.1250 34.6570 122° Southeast 271 312 5,900 -444 Descending FlightAware ADS-B
Thu 07:17:27 AM 32.1100 34.6860 121° Southeast 270 311 5,700 -444 Descending FlightAware ADS-B
Thu 07:17:51 AM 32.0920 34.7170 124° Southeast 272 313 5,500 -545 Descending FlightAware ADS-B
Thu 07:18:11 AM 32.0780 34.7430 122° Southeast 262 302 5,300 -429 Descending FlightAware ADS-B
Thu 07:18:33 AM 32.0620 34.7710 124° Southeast 244 281 5,200 -450 Descending FlightAware ADS-B
Thu 07:18:51 AM 32.0490 34.7870 134° Southeast 239 275 5,000 -698 Descending FlightAware ADS-B
Thu 07:19:16 AM 32.0300 34.8090 136° Southeast 224 258 4,700 -290 Descending FlightAware ADS-B
Thu 07:19:53 AM 32.0420 34.7960 317° Northwest 217 250 4,700 -73 Level FlightAware ADS-B
Thu 07:20:38 AM 31.9750 34.8710 136° Southeast 211 243 4,600 -1,158 Descending FlightAware ADS-B
Thu 07:20:50 AM 31.9720 34.8900 101° East 185 213 3,600 -2,471 Descending FlightAware ADS-B
Thu 07:21:12 AM 31.9760 34.9080 75° East 170 196 3,200 -1,102 Descending FlightAware ADS-B
Thu 07:21:39 AM 31.9810 34.9280 74° East 164 189 2,700 -1,176 Descending FlightAware ADS-B
Thu 07:22:03 AM 31.9860 34.9520 76° East 168 193 2,200 -1,143 Descending FlightAware ADS-B
Thu 07:22:21 AM 31.9960 34.9640 46° Northeast 159 183 1,900 -750 Descending FlightAware ADS-B
Thu 07:22:51 AM 32.0150 34.9620 355° North 149 171 1,600 -686 Descending FlightAware ADS-B
Thu 07:22:56 AM 32.0200 34.9590 333° Northwest 146 168 1,500 -1,091 Descending FlightAware ADS-B
Thu 07:23:13 AM 32.0260 34.9490 305° West 149 171 1,200 -878 Descending FlightAware ADS-B
Thu 07:23:37 AM 32.0230 34.9290 260° West 148 170 900 -750 Descending FlightAware ADS-B
Thu 07:24:01 AM 32.0200 34.9100 259° West 147 169 600 -714 Descending FlightAware ADS-B
Thu 07:24:19 AM 32.0180 34.8960 260° West 150 173 400 -667 Descending FlightAware ADS-B
Thu 07:24:44 AM 32.0160 34.8800 262° West 110 127 -960 Descending FlightAware ADS-B

Login

Don't have an account? Register now (free) for customized features, flight alerts, and more!